Observation data for JA Ranch on 01/12/2021      Previous  Date  Next       Current Mesonet Observations  Soil Data  Daily Summary Page  Observations in Plain Language
KPD3 120600Z 27004KT M02/M04 A3029 RMK A01 T10211036  RH  089%=      5-min Rain = 0
KPD3 120601Z 27003KT M02/M04 A303 RMK A01 T10211036  RH  089%=      5-min Rain = 0
KPD3 120602Z 27004KT M02/M04 A303 RMK A01 T10211037  RH  089%=      5-min Rain = 0
KPD3 120603Z 28004KT M02/M04 A303 RMK A01 T10221038  RH  089%=      5-min Rain = 0
KPD3 120604Z 29004KT M02/M04 A3029 RMK A01 T10221038  RH  089%=      5-min Rain = 0
KPD3 120605Z 29004KT M02/M04 A303 RMK A01 T10231038  RH  089%=      5-min Rain = 0
KPD3 120606Z 29004KT M02/M04 A303 RMK A01 T10231038  RH  090%=      5-min Rain = 0
KPD3 120607Z 29005KT M02/M04 A303 RMK A01 T10231037  RH  090%=      5-min Rain = 0
KPD3 120608Z 29004KT M02/M04 A303 RMK A01 T10231038  RH  090%=      5-min Rain = 0
KPD3 120609Z 30003KT M02/M04 A303 RMK A01 T10231038  RH  090%=      5-min Rain = 0
KPD3 120610Z 30004KT M02/M04 A303 RMK A01 T10231038  RH  089%=      5-min Rain = 0
KPD3 120611Z 30004KT M02/M04 A303 RMK A01 T10231039  RH  089%=      5-min Rain = 0
KPD3 120612Z 30004KT M02/M04 A303 RMK A01 T10241039  RH  089%=      5-min Rain = 0
KPD3 120613Z 30005KT M02/M04 A303 RMK A01 T10241040  RH  089%=      5-min Rain = 0
KPD3 120614Z 30005KT M02/M04 A303 RMK A01 T10241040  RH  089%=      5-min Rain = 0
KPD3 120615Z 30005KT M03/M04 A303 RMK A01 T10261042  RH  089%=      5-min Rain = 0
KPD3 120616Z 29005KT M03/M04 A3029 RMK A01 T10271043  RH  089%=      5-min Rain = 0
KPD3 120617Z 29005KT M03/M04 A3029 RMK A01 T10281043  RH  089%=      5-min Rain = 0
KPD3 120618Z 29005KT M03/M04 A3029 RMK A01 T10281042  RH  090%=      5-min Rain = 0
KPD3 120619Z 29005KT M03/M04 A3029 RMK A01 T10271041  RH  090%=      5-min Rain = 0
KPD3 120620Z 28005KT M03/M04 A3029 RMK A01 T10281042  RH  090%=      5-min Rain = 0
KPD3 120621Z 29006KT M03/M04 A3029 RMK A01 T10281041  RH  091%=      5-min Rain = 0
KPD3 120622Z 29006KT M03/M04 A3029 RMK A01 T10261039  RH  091%=      5-min Rain = 0
KPD3 120623Z 29006KT M03/M04 A3029 RMK A01 T10251038  RH  091%=      5-min Rain = 0
KPD3 120624Z 29006KT M03/M04 A3029 RMK A01 T10251037  RH  091%=      5-min Rain = 0
KPD3 120625Z 29006KT M02/M04 A3029 RMK A01 T10241038  RH  090%=      5-min Rain = 0
KPD3 120626Z 29006KT M02/M04 A3029 RMK A01 T10241038  RH  090%=      5-min Rain = 0
KPD3 120627Z 29006KT M02/M04 A3029 RMK A01 T10241039  RH  090%=      5-min Rain = 0
KPD3 120628Z 28006KT M03/M04 A3029 RMK A01 T10251039  RH  090%=      5-min Rain = 0
KPD3 120629Z 28007KT M03/M04 A3029 RMK A01 T10251039  RH  090%=      5-min Rain = 0
KPD3 120630Z 28006KT M02/M04 A3029 RMK A01 T10241038  RH  090%=      5-min Rain = 0
KPD3 120631Z 27006KT M02/M04 A3029 RMK A01 T10241038  RH  090%=      5-min Rain = 0
KPD3 120632Z 27006KT M02/M04 A3029 RMK A01 T10241038  RH  090%=      5-min Rain = 0
KPD3 120633Z 27006KT M02/M04 A3029 RMK A01 T10241038  RH  090%=      5-min Rain = 0
KPD3 120634Z 27006KT M02/M04 A3029 RMK A01 T10231038  RH  090%=      5-min Rain = 0
KPD3 120635Z 27006KT M02/M04 A3029 RMK A01 T10231038  RH  090%=      5-min Rain = 0
KPD3 120636Z 27005KT M02/M04 A303 RMK A01 T10241039  RH  089%=      5-min Rain = 0
KPD3 120637Z 27004KT M03/M04 A303 RMK A01 T10251040  RH  089%=      5-min Rain = 0
KPD3 120638Z 27004KT M03/M04 A303 RMK A01 T10261041  RH  089%=      5-min Rain = 0
KPD3 120639Z 27003KT M03/M04 A303 RMK A01 T10271042  RH  089%=      5-min Rain = 0
KPD3 120640Z 26003KT M03/M04 A303 RMK A01 T10281043  RH  089%=      5-min Rain = 0
KPD3 120641Z 26003KT M03/M05 A303 RMK A01 T10291045  RH  089%=      5-min Rain = 0
KPD3 120642Z 26002KT M03/M05 A303 RMK A01 T10301046  RH  089%=      5-min Rain = 0
KPD3 120643Z 26003KT M03/M05 A303 RMK A01 T10311046  RH  090%=      5-min Rain = 0
KPD3 120644Z 26002KT M03/M05 A303 RMK A01 T10321046  RH  090%=      5-min Rain = 0
KPD3 120645Z 26003KT M03/M05 A303 RMK A01 T10321045  RH  090%=      5-min Rain = 0
KPD3 120646Z 26003KT M03/M05 A303 RMK A01 T10321045  RH  091%=      5-min Rain = 0
KPD3 120647Z 26003KT M03/M04 A303 RMK A01 T10321044  RH  091%=      5-min Rain = 0
KPD3 120648Z 25003KT M03/M04 A303 RMK A01 T10321044  RH  091%=      5-min Rain = 0
KPD3 120649Z 27003KT M03/M04 A303 RMK A01 T10321044  RH  091%=      5-min Rain = 0
KPD3 120650Z 27002KT M03/M04 A303 RMK A01 T10321043  RH  092%=      5-min Rain = 0
KPD3 120651Z 27003KT M03/M04 A303 RMK A01 T10321043  RH  092%=      5-min Rain = 0
KPD3 120652Z 28004KT M03/M04 A303 RMK A01 T10321043  RH  092%=      5-min Rain = 0
KPD3 120653Z 28004KT M03/M04 A303 RMK A01 T10321043  RH  092%=      5-min Rain = 0
KPD3 120654Z 29004KT M03/M04 A303 RMK A01 T10311043  RH  092%=      5-min Rain = 0
KPD3 120655Z 30003KT M03/M04 A303 RMK A01 T10311043  RH  092%=      5-min Rain = 0
KPD3 120656Z 31003KT M03/M05 A303 RMK A01 T10331046  RH  090%=      5-min Rain = 0
KPD3 120657Z 31003KT M03/M05 A3029 RMK A01 T10341048  RH  090%=      5-min Rain = 0
KPD3 120658Z 30004KT M04/M05 A3029 RMK A01 T10351048  RH  090%=      5-min Rain = 0
KPD3 120659Z 30004KT M04/M05 A3029 RMK A01 T10361049  RH  091%=      5-min Rain = 0
KPD3 120700Z 29005KT M04/M05 A3029 RMK A01 T10361049  RH  091%=      5-min Rain = 0
KPD3 120701Z 29005KT M04/M05 A3029 RMK A01 T10371050  RH  091%=      5-min Rain = 0
KPD3 120702Z 28005KT M04/M05 A3029 RMK A01 T10381051  RH  091%=      5-min Rain = 0
KPD3 120703Z 29005KT M04/M05 A3029 RMK A01 T10381051  RH  091%=      5-min Rain = 0
KPD3 120704Z 28005KT M04/M05 A3029 RMK A01 T10381051  RH  091%=      5-min Rain = 0
KPD3 120705Z 28006KT M04/M05 A3029 RMK A01 T10381050  RH  091%=      5-min Rain = 0
KPD3 120706Z 28006KT M04/M05 A3029 RMK A01 T10371048  RH  092%=      5-min Rain = 0
KPD3 120707Z 28006KT M04/M05 A3029 RMK A01 T10361047  RH  092%=      5-min Rain = 0
KPD3 120708Z 28006KT M03/M05 A3029 RMK A01 T10341045  RH  092%=      5-min Rain = 0
KPD3 120709Z 28006KT M03/M04 A3029 RMK A01 T10331044  RH  092%=      5-min Rain = 0
KPD3 120710Z 29006KT M03/M04 A3029 RMK A01 T10311042  RH  093%=      5-min Rain = 0
KPD3 120711Z 29006KT M03/M04 A3029 RMK A01 T10291040  RH  092%=      5-min Rain = 0
KPD3 120712Z 29006KT M03/M04 A3029 RMK A01 T10281040  RH  092%=      5-min Rain = 0
KPD3 120713Z 29007KT M03/M04 A3029 RMK A01 T10281040  RH  092%=      5-min Rain = 0
KPD3 120714Z 29007KT M03/M04 A3029 RMK A01 T10271039  RH  091%=      5-min Rain = 0
KPD3 120715Z 29007KT M03/M04 A3029 RMK A01 T10271040  RH  091%=      5-min Rain = 0
KPD3 120716Z 29007KT M03/M04 A3029 RMK A01 T10271040  RH  091%=      5-min Rain = 0
KPD3 120717Z 29007KT M03/M04 A3029 RMK A01 T10271040  RH  091%=      5-min Rain = 0
KPD3 120718Z 29007KT M03/M04 A3029 RMK A01 T10271040  RH  091%=      5-min Rain = 0
KPD3 120719Z 29006KT M03/M04 A3029 RMK A01 T10261040  RH  090%=      5-min Rain = 0
KPD3 120720Z 29006KT M03/M04 A3029 RMK A01 T10261040  RH  090%=      5-min Rain = 0
KPD3 120721Z 30004KT M03/M04 A3029 RMK A01 T10281043  RH  089%=      5-min Rain = 0
KPD3 120722Z 32003KT M03/M05 A3029 RMK A01 T10311048  RH  088%=      5-min Rain = 0
KPD3 120723Z 32004KT M04/M05 A3029 RMK A01 T10351053  RH  088%=      5-min Rain = 0
KPD3 120724Z 32004KT M04/M05 A3029 RMK A01 T10371054  RH  088%=      5-min Rain = 0
KPD3 120725Z 31004KT M04/M06 A3029 RMK A01 T10391055  RH  089%=      5-min Rain = 0
KPD3 120726Z 31004KT M04/M05 A3029 RMK A01 T10381052  RH  091%=      5-min Rain = 0
KPD3 120727Z 31004KT M04/M05 A3029 RMK A01 T10371048  RH  092%=      5-min Rain = 0
KPD3 120728Z 33003KT M04/M05 A3029 RMK A01 T10371050  RH  091%=      5-min Rain = 0
KPD3 120729Z 34003KT M04/M05 A3028 RMK A01 T10391053  RH  090%=      5-min Rain = 0
KPD3 120730Z 33003KT M04/M05 A3028 RMK A01 T10411054  RH  090%=      5-min Rain = 0
KPD3 120731Z 31004KT M04/M06 A3028 RMK A01 T10421055  RH  091%=      5-min Rain = 0
KPD3 120732Z 31003KT M04/M05 A3028 RMK A01 T10401051  RH  092%=      5-min Rain = 0
KPD3 120733Z 30003KT M04/M05 A3028 RMK A01 T10391050  RH  092%=      5-min Rain = 0
KPD3 120734Z 30003KT M04/M05 A3028 RMK A01 T10411053  RH  091%=      5-min Rain = 0
KPD3 120735Z 33003KT M04/M06 A3028 RMK A01 T10431056  RH  091%=      5-min Rain = 0
KPD3 120736Z 34003KT M05/M06 A3028 RMK A01 T10451057  RH  091%=      5-min Rain = 0
KPD3 120737Z 34003KT M05/M06 A3028 RMK A01 T10471059  RH  091%=      5-min Rain = 0
KPD3 120738Z 33003KT M05/M06 A3028 RMK A01 T10491060  RH  092%=      5-min Rain = 0
KPD3 120739Z 34003KT M05/M06 A3028 RMK A01 T10491060  RH  092%=      5-min Rain = 0
KPD3 120740Z 35003KT M05/M06 A3028 RMK A01 T10521062  RH  092%=      5-min Rain = 0
KPD3 120741Z 36003KT M05/M07 A3028 RMK A01 T10541066  RH  092%=      5-min Rain = 0
KPD3 120742Z 00003KT M06/M07 A3028 RMK A01 T10581069  RH  091%=      5-min Rain = 0
KPD3 120743Z 01003KT M06/M07 A3028 RMK A01 T10601071  RH  091%=      5-min Rain = 0
KPD3 120744Z 01003KT M06/M07 A3028 RMK A01 T10611072  RH  092%=      5-min Rain = 0
KPD3 120745Z 02002KT M06/M07 A3028 RMK A01 T10611072  RH  092%=      5-min Rain = 0
KPD3 120746Z 02002KT M06/M07 A3028 RMK A01 T10621072  RH  093%=      5-min Rain = 0
KPD3 120747Z 00002KT M06/M07 A3028 RMK A01 T10621072  RH  093%=      5-min Rain = 0
KPD3 120748Z 01003KT M06/M07 A3028 RMK A01 T10631072  RH  093%=      5-min Rain = 0
KPD3 120749Z 00002KT M06/M07 A3028 RMK A01 T10631072  RH  093%=      5-min Rain = 0
KPD3 120750Z 00002KT M06/M07 A3029 RMK A01 T10631071  RH  094%=      5-min Rain = 0
KPD3 120751Z 00002KT M06/M07 A3029 RMK A01 T10631071  RH  094%=      5-min Rain = 0
KPD3 120752Z 01003KT M06/M07 A3029 RMK A01 T10621070  RH  095%=      5-min Rain = 0
KPD3 120753Z 01002KT M06/M07 A3029 RMK A01 T10601066  RH  095%=      5-min Rain = 0
KPD3 120754Z 02002KT M06/M07 A3029 RMK A01 T10601066  RH  095%=      5-min Rain = 0
KPD3 120755Z 02002KT M06/M07 A3029 RMK A01 T10601066  RH  096%=      5-min Rain = 0
KPD3 120756Z 02003KT M06/M07 A3029 RMK A01 T10601066  RH  096%=      5-min Rain = 0
KPD3 120757Z 01003KT M06/M06 A3029 RMK A01 T10581064  RH  096%=      5-min Rain = 0
KPD3 120758Z 01003KT M06/M07 A3029 RMK A01 T10591065  RH  096%=      5-min Rain = 0
KPD3 120759Z 01003KT M06/M07 A3029 RMK A01 T10611066  RH  096%=      5-min Rain = 0
KPD3 120800Z 02003KT M06/M07 A3029 RMK A01 T10591065  RH  096%=      5-min Rain = 0
KPD3 120801Z 02003KT M06/M06 A3029 RMK A01 T10571062  RH  096%=      5-min Rain = 0
KPD3 120802Z 02003KT M06/M06 A3029 RMK A01 T10591064  RH  096%=      5-min Rain = 0
KPD3 120803Z 02003KT M06/M06 A3029 RMK A01 T10581063  RH  096%=      5-min Rain = 0
KPD3 120804Z 01003KT M06/M06 A3029 RMK A01 T10561061  RH  097%=      5-min Rain = 0
KPD3 120805Z 02002KT M06/M06 A3029 RMK A01 T10561060  RH  097%=      5-min Rain = 0
KPD3 120806Z 02002KT M06/M06 A3029 RMK A01 T10551059  RH  097%=      5-min Rain = 0
KPD3 120807Z 02002KT M06/M06 A3029 RMK A01 T10561061  RH  097%=      5-min Rain = 0
KPD3 120808Z 02002KT M06/M06 A3029 RMK A01 T10581063  RH  096%=      5-min Rain = 0
KPD3 120809Z 01003KT M06/M06 A3029 RMK A01 T10571062  RH  096%=      5-min Rain = 0
KPD3 120810Z 01004KT M06/M06 A3029 RMK A01 T10571062  RH  096%=      5-min Rain = 0
KPD3 120811Z 01004KT M06/M07 A3029 RMK A01 T10591065  RH  096%=      5-min Rain = 0
KPD3 120812Z 01003KT M06/M07 A3029 RMK A01 T10631070  RH  095%=      5-min Rain = 0
KPD3 120813Z 01003KT M07/M07 A3029 RMK A01 T10651072  RH  095%=      5-min Rain = 0
KPD3 120814Z 02003KT M07/M07 A3029 RMK A01 T10661073  RH  095%=      5-min Rain = 0
KPD3 120815Z 03003KT M06/M07 A3029 RMK A01 T10621068  RH  096%=      5-min Rain = 0
KPD3 120816Z 02003KT M06/M06 A3029 RMK A01 T10571062  RH  097%=      5-min Rain = 0
KPD3 120817Z 02003KT M06/M06 A3029 RMK A01 T10591063  RH  097%=      5-min Rain = 0
KPD3 120818Z 02002KT M06/M07 A3029 RMK A01 T10631069  RH  096%=      5-min Rain = 0
KPD3 120819Z 03002KT M07/M07 A3029 RMK A01 T10661073  RH  095%=      5-min Rain = 0
KPD3 120820Z 02002KT M07/M07 A3029 RMK A01 T10661073  RH  095%=      5-min Rain = 0
KPD3 120821Z 03002KT M06/M07 A3029 RMK A01 T10641070  RH  096%=      5-min Rain = 0
KPD3 120822Z 03001KT M06/M07 A3029 RMK A01 T10611066  RH  097%=      5-min Rain = 0
KPD3 120823Z 03001KT M06/M06 A3029 RMK A01 T10581062  RH  097%=      5-min Rain = 0
KPD3 120824Z 03001KT M06/M06 A3029 RMK A01 T10611064  RH  097%=      5-min Rain = 0
KPD3 120825Z 07001KT M06/M07 A3029 RMK A01 T10641068  RH  097%=      5-min Rain = 0
KPD3 120826Z 07001KT M07/M07 A3029 RMK A01 T10651070  RH  096%=      5-min Rain = 0
KPD3 120827Z 05001KT M07/M07 A3029 RMK A01 T10661071  RH  096%=      5-min Rain = 0
KPD3 120828Z 04001KT M07/M07 A3029 RMK A01 T10681074  RH  096%=      5-min Rain = 0
KPD3 120829Z 04001KT M07/M07 A3029 RMK A01 T10681074  RH  096%=      5-min Rain = 0
KPD3 120830Z 04000KT M07/M07 A3029 RMK A01 T10681073  RH  096%=      5-min Rain = 0
KPD3 120831Z 04000KT M06/M07 A3029 RMK A01 T10631068  RH  097%=      5-min Rain = 0
KPD3 120832Z 00000KT M06/M06 A3029 RMK A01 T10591062  RH  098%=      5-min Rain = 0
KPD3 120833Z 00000KT M06/M06 A3029 RMK A01 T10571060  RH  098%=      5-min Rain = 0
KPD3 120834Z 18000KT M06/M06 A3029 RMK A01 T10551057  RH  098%=      5-min Rain = 0
KPD3 120835Z 17000KT M06/M06 A3029 RMK A01 T10571060  RH  098%=      5-min Rain = 0
KPD3 120836Z 00000KT M06/M06 A3029 RMK A01 T10591062  RH  097%=      5-min Rain = 0
KPD3 120837Z 18000KT M06/M06 A3029 RMK A01 T10591063  RH  097%=      5-min Rain = 0
KPD3 120838Z 00000KT M06/M06 A3029 RMK A01 T10591062  RH  097%=      5-min Rain = 0
KPD3 120839Z 23000KT M06/M06 A3029 RMK A01 T10591063  RH  097%=      5-min Rain = 0
KPD3 120840Z 33000KT M06/M07 A3029 RMK A01 T10611065  RH  097%=      5-min Rain = 0
KPD3 120841Z 33000KT M06/M06 A3029 RMK A01 T10591063  RH  097%=      5-min Rain = 0
KPD3 120842Z 35001KT M06/M07 A3029 RMK A01 T10611065  RH  097%=      5-min Rain = 0
KPD3 120843Z 00001KT M07/M07 A3029 RMK A01 T10651069  RH  097%=      5-min Rain = 0
KPD3 120844Z 00001KT M07/M07 A3029 RMK A01 T10671072  RH  096%=      5-min Rain = 0
KPD3 120845Z 00001KT M06/M06 A3029 RMK A01 T10601063  RH  098%=      5-min Rain = 0
KPD3 120846Z 01001KT M05/M06 A3029 RMK A01 T10541056  RH  098%=      5-min Rain = 0
KPD3 120847Z 01001KT M05/M05 A3029 RMK A01 T10521054  RH  099%=      5-min Rain = 0
KPD3 120848Z 35001KT M05/M05 A3029 RMK A01 T10501051  RH  099%=      5-min Rain = 0
KPD3 120849Z 35001KT M05/M05 A3029 RMK A01 T10501052  RH  099%=      5-min Rain = 0
KPD3 120850Z 33001KT M05/M06 A3029 RMK A01 T10541056  RH  098%=      5-min Rain = 0
KPD3 120851Z 32001KT M06/M06 A3029 RMK A01 T10561058  RH  098%=      5-min Rain = 0
KPD3 120852Z 30001KT M06/M06 A3029 RMK A01 T10591062  RH  098%=      5-min Rain = 0
KPD3 120853Z 30001KT M06/M07 A3029 RMK A01 T10641068  RH  097%=      5-min Rain = 0
KPD3 120854Z 31001KT M06/M06 A3029 RMK A01 T10601063  RH  098%=      5-min Rain = 0
KPD3 120855Z 32001KT M06/M07 A3029 RMK A01 T10621065  RH  098%=      5-min Rain = 0
KPD3 120856Z 31001KT M06/M06 A3029 RMK A01 T10601064  RH  098%=      5-min Rain = 0
KPD3 120857Z 35001KT M06/M06 A3029 RMK A01 T10601063  RH  098%=      5-min Rain = 0
KPD3 120858Z 34002KT M06/M06 A3029 RMK A01 T10611064  RH  097%=      5-min Rain = 0
KPD3 120859Z 34001KT M06/M06 A3029 RMK A01 T10581062  RH  098%=      5-min Rain = 0
KPD3 120900Z 33002KT M06/M06 A3029 RMK A01 T10561060  RH  098%=      5-min Rain = 0
KPD3 120901Z 32002KT M05/M05 A3029 RMK A01 T10511053  RH  098%=      5-min Rain = 0
KPD3 120902Z 31002KT M05/M05 A3029 RMK A01 T10491052  RH  098%=      5-min Rain = 0
KPD3 120903Z 30003KT M05/M05 A3029 RMK A01 T10451047  RH  099%=      5-min Rain = 0
KPD3 120904Z 30003KT M04/M04 A3029 RMK A01 T10421044  RH  099%=      5-min Rain = 0
KPD3 120905Z 30003KT M04/M05 A3028 RMK A01 T10431046  RH  098%=      5-min Rain = 0
KPD3 120906Z 29003KT M04/M05 A3028 RMK A01 T10431045  RH  098%=      5-min Rain = 0
KPD3 120907Z 30003KT M05/M05 A3028 RMK A01 T10461050  RH  098%=      5-min Rain = 0
KPD3 120908Z 31003KT M05/M05 A3028 RMK A01 T10481052  RH  097%=      5-min Rain = 0
KPD3 120909Z 30003KT M05/M06 A3028 RMK A01 T10541059  RH  096%=      5-min Rain = 0
KPD3 120910Z 31003KT M06/M06 A3028 RMK A01 T10571062  RH  096%=      5-min Rain = 0
KPD3 120911Z 31002KT M06/M07 A3028 RMK A01 T10591065  RH  096%=      5-min Rain = 0
KPD3 120912Z 31003KT M06/M07 A3028 RMK A01 T10611067  RH  096%=      5-min Rain = 0
KPD3 120913Z 30003KT M06/M07 A3028 RMK A01 T10601065  RH  096%=      5-min Rain = 0
KPD3 120914Z 30003KT M06/M07 A3028 RMK A01 T10601065  RH  096%=      5-min Rain = 0
KPD3 120915Z 29003KT M06/M07 A3028 RMK A01 T10631069  RH  096%=      5-min Rain = 0
KPD3 120916Z 29003KT M06/M07 A3028 RMK A01 T10631069  RH  096%=      5-min Rain = 0
KPD3 120917Z 28003KT M06/M07 A3028 RMK A01 T10631068  RH  096%=      5-min Rain = 0
KPD3 120918Z 29003KT M06/M07 A3028 RMK A01 T10611066  RH  096%=      5-min Rain = 0
KPD3 120919Z 28003KT M06/M06 A3028 RMK A01 T10581062  RH  097%=      5-min Rain = 0
KPD3 120920Z 27003KT M06/M06 A3028 RMK A01 T10551058  RH  097%=      5-min Rain = 0
KPD3 120921Z 27004KT M05/M06 A3028 RMK A01 T10531057  RH  097%=      5-min Rain = 0
KPD3 120922Z 27003KT M05/M05 A3028 RMK A01 T10471050  RH  098%=      5-min Rain = 0
KPD3 120923Z 26004KT M05/M05 A3028 RMK A01 T10451047  RH  098%=      5-min Rain = 0
KPD3 120924Z 26003KT M04/M05 A3028 RMK A01 T10431046  RH  098%=      5-min Rain = 0
KPD3 120925Z 25003KT M04/M05 A3028 RMK A01 T10441047  RH  098%=      5-min Rain = 0
KPD3 120926Z 24002KT M05/M06 A3028 RMK A01 T10541060  RH  096%=      5-min Rain = 0
KPD3 120927Z 24003KT M06/M07 A3028 RMK A01 T10581065  RH  095%=      5-min Rain = 0
KPD3 120928Z 24003KT M06/M07 A3028 RMK A01 T10601066  RH  095%=      5-min Rain = 0
KPD3 120929Z 24003KT M06/M07 A3028 RMK A01 T10601067  RH  095%=      5-min Rain = 0
KPD3 120930Z 26004KT M06/M07 A3028 RMK A01 T10611067  RH  096%=      5-min Rain = 0
KPD3 120931Z 26005KT M06/M07 A3028 RMK A01 T10601066  RH  096%=      5-min Rain = 0
KPD3 120932Z 26006KT M06/M07 A3028 RMK A01 T10601065  RH  096%=      5-min Rain = 0
KPD3 120933Z 27006KT M06/M07 A3028 RMK A01 T10591065  RH  096%=      5-min Rain = 0
KPD3 120934Z 27006KT M06/M07 A3028 RMK A01 T10611066  RH  096%=      5-min Rain = 0
KPD3 120935Z 27006KT M06/M07 A3028 RMK A01 T10611068  RH  095%=      5-min Rain = 0
KPD3 120936Z 27007KT M06/M07 A3028 RMK A01 T10621068  RH  095%=      5-min Rain = 0
KPD3 120937Z 27007KT M06/M07 A3028 RMK A01 T10611067  RH  096%=      5-min Rain = 0
KPD3 120938Z 28007KT M06/M07 A3028 RMK A01 T10611067  RH  096%=      5-min Rain = 0
KPD3 120939Z 28007KT M06/M07 A3028 RMK A01 T10601066  RH  096%=      5-min Rain = 0
KPD3 120940Z 28008KT M06/M07 A3028 RMK A01 T10601066  RH  096%=      5-min Rain = 0
KPD3 120941Z 28007KT M06/M07 A3028 RMK A01 T10601066  RH  096%=      5-min Rain = 0
KPD3 120942Z 28007KT M06/M06 A3028 RMK A01 T10581063  RH  096%=      5-min Rain = 0
KPD3 120943Z 28007KT M05/M06 A3028 RMK A01 T10541059  RH  097%=      5-min Rain = 0
KPD3 120944Z 29007KT M05/M06 A3028 RMK A01 T10511055  RH  097%=      5-min Rain = 0
KPD3 120945Z 29007KT M05/M05 A3028 RMK A01 T10501054  RH  097%=      5-min Rain = 0
KPD3 120946Z 29006KT M05/M05 A3028 RMK A01 T10501054  RH  097%=      5-min Rain = 0
KPD3 120947Z 28005KT M05/M05 A3028 RMK A01 T10501054  RH  097%=      5-min Rain = 0
KPD3 120948Z 28004KT M06/M06 A3028 RMK A01 T10551061  RH  095%=      5-min Rain = 0
KPD3 120949Z 29003KT M06/M07 A3028 RMK A01 T10621071  RH  094%=      5-min Rain = 0
KPD3 120950Z 29003KT M06/M07 A3028 RMK A01 T10641072  RH  094%=      5-min Rain = 0
KPD3 120951Z 29002KT M06/M07 A3028 RMK A01 T10611068  RH  095%=      5-min Rain = 0
KPD3 120952Z 29002KT M06/M07 A3028 RMK A01 T10631071  RH  094%=      5-min Rain = 0
KPD3 120953Z 27001KT M07/M08 A3028 RMK A01 T10701080  RH  093%=      5-min Rain = 0
KPD3 120954Z 27001KT M07/M08 A3028 RMK A01 T10721083  RH  092%=      5-min Rain = 0
KPD3 120955Z 28001KT M07/M08 A3028 RMK A01 T10741084  RH  093%=      5-min Rain = 0
KPD3 120956Z 27001KT M08/M09 A3028 RMK A01 T10761086  RH  092%=      5-min Rain = 0
KPD3 120957Z 27001KT M08/M09 A3028 RMK A01 T10781088  RH  092%=      5-min Rain = 0
KPD3 120958Z 28001KT M08/M09 A3028 RMK A01 T10801090  RH  092%=      5-min Rain = 0
KPD3 120959Z 27001KT M08/M09 A3028 RMK A01 T10811092  RH  092%=      5-min Rain = 0
KPD3 121000Z 28000KT M08/M09 A3028 RMK A01 T10821093  RH  092%=      5-min Rain = 0
KPD3 121001Z 02001KT M08/M10 A3028 RMK A01 T10841095  RH  092%=      5-min Rain = 0
KPD3 121002Z 03001KT M08/M10 A3028 RMK A01 T10841095  RH  092%=      5-min Rain = 0
KPD3 121003Z 01000KT M08/M09 A3028 RMK A01 T10841094  RH  093%=      5-min Rain = 0
KPD3 121004Z 33000KT M08/M09 A3028 RMK A01 T10811090  RH  094%=      5-min Rain = 0
KPD3 121005Z 30001KT M08/M09 A3028 RMK A01 T10781085  RH  095%=      5-min Rain = 0
KPD3 121006Z 32001KT M08/M08 A3028 RMK A01 T10771083  RH  095%=      5-min Rain = 0
KPD3 121007Z 03000KT M08/M08 A3028 RMK A01 T10771083  RH  095%=      5-min Rain = 0
KPD3 121008Z 04000KT M08/M09 A3028 RMK A01 T10771085  RH  095%=      5-min Rain = 0
KPD3 121009Z 02001KT M08/M09 A3028 RMK A01 T10771085  RH  095%=      5-min Rain = 0
KPD3 121010Z 00001KT M08/M09 A3028 RMK A01 T10781085  RH  094%=      5-min Rain = 0
KPD3 121011Z 33001KT M08/M09 A3028 RMK A01 T10781086  RH  094%=      5-min Rain = 0
KPD3 121012Z 33001KT M08/M08 A3028 RMK A01 T10771084  RH  095%=      5-min Rain = 0
KPD3 121013Z 32001KT M08/M08 A3028 RMK A01 T10761083  RH  095%=      5-min Rain = 0
KPD3 121014Z 32001KT M08/M08 A3028 RMK A01 T10751082  RH  095%=      5-min Rain = 0
KPD3 121015Z 35001KT M07/M08 A3028 RMK A01 T10741080  RH  095%=      5-min Rain = 0
KPD3 121016Z 35001KT M07/M08 A3028 RMK A01 T10721078  RH  096%=      5-min Rain = 0
KPD3 121017Z 34001KT M07/M08 A3028 RMK A01 T10701075  RH  096%=      5-min Rain = 0
KPD3 121018Z 34001KT M07/M07 A3028 RMK A01 T10691074  RH  096%=      5-min Rain = 0
KPD3 121019Z 33001KT M07/M07 A3028 RMK A01 T10691074  RH  096%=      5-min Rain = 0
KPD3 121020Z 32001KT M07/M07 A3028 RMK A01 T10681074  RH  096%=      5-min Rain = 0
KPD3 121021Z 31002KT M07/M07 A3028 RMK A01 T10681074  RH  096%=      5-min Rain = 0
KPD3 121022Z 31002KT M07/M07 A3028 RMK A01 T10681074  RH  096%=      5-min Rain = 0
KPD3 121023Z 30003KT M07/M07 A3028 RMK A01 T10671073  RH  096%=      5-min Rain = 0
KPD3 121024Z 30003KT M07/M07 A3028 RMK A01 T10651070  RH  096%=      5-min Rain = 0
KPD3 121025Z 31003KT M06/M07 A3028 RMK A01 T10621067  RH  097%=      5-min Rain = 0
KPD3 121026Z 30003KT M06/M07 A3028 RMK A01 T10611065  RH  097%=      5-min Rain = 0
KPD3 121027Z 31004KT M06/M07 A3028 RMK A01 T10611065  RH  097%=      5-min Rain = 0
KPD3 121028Z 30004KT M06/M07 A3028 RMK A01 T10611066  RH  096%=      5-min Rain = 0
KPD3 121029Z 30004KT M06/M07 A3028 RMK A01 T10621068  RH  096%=      5-min Rain = 0
KPD3 121030Z 30004KT M06/M07 A3028 RMK A01 T10621069  RH  096%=      5-min Rain = 0
KPD3 121031Z 30004KT M06/M07 A3028 RMK A01 T10631069  RH  095%=      5-min Rain = 0
KPD3 121032Z 30004KT M06/M07 A3028 RMK A01 T10641071  RH  095%=      5-min Rain = 0
KPD3 121033Z 29004KT M07/M07 A3028 RMK A01 T10661074  RH  094%=      5-min Rain = 0
KPD3 121034Z 29004KT M07/M08 A3028 RMK A01 T10681076  RH  094%=      5-min Rain = 0
KPD3 121035Z 29004KT M07/M08 A3028 RMK A01 T10691078  RH  093%=      5-min Rain = 0
KPD3 121036Z 29004KT M07/M08 A3028 RMK A01 T10711080  RH  093%=      5-min Rain = 0
KPD3 121037Z 29004KT M07/M08 A3028 RMK A01 T10711080  RH  093%=      5-min Rain = 0
KPD3 121038Z 30004KT M07/M08 A3028 RMK A01 T10701079  RH  094%=      5-min Rain = 0
KPD3 121039Z 29005KT M07/M07 A3028 RMK A01 T10661073  RH  095%=      5-min Rain = 0
KPD3 121040Z 29004KT M06/M07 A3028 RMK A01 T10621068  RH  096%=      5-min Rain = 0
KPD3 121041Z 29003KT M06/M06 A3028 RMK A01 T10581063  RH  096%=      5-min Rain = 0
KPD3 121042Z 29003KT M06/M06 A3028 RMK A01 T10551059  RH  097%=      5-min Rain = 0
KPD3 121043Z 30003KT M05/M06 A3028 RMK A01 T10531058  RH  097%=      5-min Rain = 0
KPD3 121044Z 30003KT M05/M06 A3028 RMK A01 T10531058  RH  096%=      5-min Rain = 0
KPD3 121045Z 31003KT M06/M06 A3028 RMK A01 T10551061  RH  095%=      5-min Rain = 0
KPD3 121046Z 31003KT M06/M06 A3027 RMK A01 T10561063  RH  095%=      5-min Rain = 0
KPD3 121047Z 32003KT M06/M07 A3027 RMK A01 T10581067  RH  094%=      5-min Rain = 0
KPD3 121048Z 32003KT M06/M07 A3027 RMK A01 T10611071  RH  093%=      5-min Rain = 0
KPD3 121049Z 32003KT M06/M08 A3027 RMK A01 T10641075  RH  092%=      5-min Rain = 0
KPD3 121050Z 32004KT M07/M08 A3027 RMK A01 T10661077  RH  092%=      5-min Rain = 0
KPD3 121051Z 32004KT M06/M07 A3027 RMK A01 T10641073  RH  093%=      5-min Rain = 0
KPD3 121052Z 33003KT M06/M07 A3027 RMK A01 T10611069  RH  094%=      5-min Rain = 0
KPD3 121053Z 34003KT M06/M07 A3027 RMK A01 T10591066  RH  095%=      5-min Rain = 0
KPD3 121054Z 35003KT M06/M06 A3027 RMK A01 T10581064  RH  095%=      5-min Rain = 0
KPD3 121055Z 34003KT M05/M06 A3027 RMK A01 T10541060  RH  096%=      5-min Rain = 0
KPD3 121056Z 36002KT M05/M06 A3027 RMK A01 T10531058  RH  096%=      5-min Rain = 0
KPD3 121057Z 01002KT M05/M06 A3027 RMK A01 T10511057  RH  096%=      5-min Rain = 0
KPD3 121058Z 02002KT M05/M06 A3027 RMK A01 T10521058  RH  096%=      5-min Rain = 0
KPD3 121059Z 04003KT M05/M06 A3027 RMK A01 T10501056  RH  096%=      5-min Rain = 0
KPD3 121100Z 03002KT M05/M05 A3027 RMK A01 T10491054  RH  096%=      5-min Rain = 0
KPD3 121101Z 04001KT M05/M05 A3027 RMK A01 T10471052  RH  096%=      5-min Rain = 0
KPD3 121102Z 04001KT M05/M05 A3027 RMK A01 T10451050  RH  096%=      5-min Rain = 0
KPD3 121103Z 04001KT M04/M05 A3027 RMK A01 T10441049  RH  096%=      5-min Rain = 0
KPD3 121104Z 04001KT M04/M05 A3027 RMK A01 T10441049  RH  096%=      5-min Rain = 0
KPD3 121105Z 04000KT M04/M05 A3027 RMK A01 T10441049  RH  096%=      5-min Rain = 0
KPD3 121106Z 00000KT M04/M05 A3027 RMK A01 T10431048  RH  096%=      5-min Rain = 0
KPD3 121107Z 00000KT M04/M05 A3027 RMK A01 T10441049  RH  096%=      5-min Rain = 0
KPD3 121108Z 00000KT M04/M05 A3027 RMK A01 T10441049  RH  096%=      5-min Rain = 0
KPD3 121109Z 00000KT M05/M05 A3027 RMK A01 T10451050  RH  096%=      5-min Rain = 0
KPD3 121110Z 00000KT M05/M05 A3027 RMK A01 T10471053  RH  096%=      5-min Rain = 0
KPD3 121111Z 00000KT M05/M06 A3027 RMK A01 T10491056  RH  095%=      5-min Rain = 0
KPD3 121112Z 00000KT M05/M06 A3027 RMK A01 T10491055  RH  095%=      5-min Rain = 0
KPD3 121113Z 00000KT M05/M06 A3027 RMK A01 T10481055  RH  095%=      5-min Rain = 0
KPD3 121114Z 32000KT M05/M05 A3027 RMK A01 T10481054  RH  095%=      5-min Rain = 0
KPD3 121115Z 26001KT M05/M06 A3027 RMK A01 T10501058  RH  095%=      5-min Rain = 0
KPD3 121116Z 27001KT M05/M06 A3027 RMK A01 T10511059  RH  094%=      5-min Rain = 0
KPD3 121117Z 29001KT M05/M06 A3027 RMK A01 T10521060  RH  094%=      5-min Rain = 0
KPD3 121118Z 29001KT M06/M07 A3027 RMK A01 T10561067  RH  092%=      5-min Rain = 0
KPD3 121119Z 30001KT M06/M08 A3027 RMK A01 T10621075  RH  090%=      5-min Rain = 0
KPD3 121120Z 30001KT M06/M08 A3027 RMK A01 T10621075  RH  091%=      5-min Rain = 0
KPD3 121121Z 29001KT M06/M07 A3027 RMK A01 T10631074  RH  092%=      5-min Rain = 0
KPD3 121122Z 27001KT M06/M07 A3027 RMK A01 T10631074  RH  092%=      5-min Rain = 0
KPD3 121123Z 25001KT M06/M07 A3027 RMK A01 T10631072  RH  093%=      5-min Rain = 0
KPD3 121124Z 26002KT M06/M07 A3027 RMK A01 T10591066  RH  095%=      5-min Rain = 0
KPD3 121125Z 26002KT M06/M06 A3027 RMK A01 T10561062  RH  096%=      5-min Rain = 0
KPD3 121126Z 27002KT M05/M06 A3027 RMK A01 T10541059  RH  096%=      5-min Rain = 0
KPD3 121127Z 27002KT M05/M06 A3027 RMK A01 T10541059  RH  096%=      5-min Rain = 0
KPD3 121128Z 27002KT M05/M06 A3027 RMK A01 T10541060  RH  096%=      5-min Rain = 0
KPD3 121129Z 28002KT M06/M06 A3027 RMK A01 T10551061  RH  095%=      5-min Rain = 0
KPD3 121130Z 29002KT M05/M06 A3027 RMK A01 T10541061  RH  095%=      5-min Rain = 0
KPD3 121131Z 29002KT M05/M06 A3027 RMK A01 T10531060  RH  095%=      5-min Rain = 0
KPD3 121132Z 29002KT M05/M06 A3027 RMK A01 T10521058  RH  096%=      5-min Rain = 0
KPD3 121133Z 29002KT M06/M06 A3027 RMK A01 T10551063  RH  095%=      5-min Rain = 0
KPD3 121134Z 29002KT M06/M08 A3027 RMK A01 T10641077  RH  091%=      5-min Rain = 0
KPD3 121135Z 29002KT M07/M09 A3027 RMK A01 T10731090  RH  088%=      5-min Rain = 0
KPD3 121136Z 29002KT M08/M09 A3027 RMK A01 T10761093  RH  087%=      5-min Rain = 0
KPD3 121137Z 29002KT M08/M09 A3027 RMK A01 T10761090  RH  090%=      5-min Rain = 0
KPD3 121138Z 28002KT M08/M09 A3027 RMK A01 T10751086  RH  092%=      5-min Rain = 0
KPD3 121139Z 31002KT M07/M08 A3027 RMK A01 T10731082  RH  093%=      5-min Rain = 0
KPD3 121140Z 32002KT M07/M08 A3027 RMK A01 T10691076  RH  095%=      5-min Rain = 0
KPD3 121141Z 33003KT M06/M07 A3027 RMK A01 T10641070  RH  096%=      5-min Rain = 0
KPD3 121142Z 33002KT M06/M07 A3027 RMK A01 T10611065  RH  097%=      5-min Rain = 0
KPD3 121143Z 32003KT M06/M06 A3027 RMK A01 T10601064  RH  097%=      5-min Rain = 0
KPD3 121144Z 32003KT M06/M07 A3027 RMK A01 T10611066  RH  097%=      5-min Rain = 0
KPD3 121145Z 31003KT M07/M07 A3027 RMK A01 T10651071  RH  095%=      5-min Rain = 0
KPD3 121146Z 31003KT M07/M08 A3027 RMK A01 T10671075  RH  095%=      5-min Rain = 0
KPD3 121147Z 32003KT M07/M08 A3027 RMK A01 T10681075  RH  094%=      5-min Rain = 0
KPD3 121148Z 31003KT M07/M08 A3027 RMK A01 T10691076  RH  094%=      5-min Rain = 0
KPD3 121149Z 31003KT M07/M08 A3027 RMK A01 T10701079  RH  094%=      5-min Rain = 0
KPD3 121150Z 30003KT M07/M08 A3027 RMK A01 T10701078  RH  094%=      5-min Rain = 0
KPD3 121151Z 30004KT M06/M07 A3027 RMK A01 T10631068  RH  096%=      5-min Rain = 0
KPD3 121152Z 29004KT M06/M06 A3027 RMK A01 T10581062  RH  097%=      5-min Rain = 0
KPD3 121153Z 28004KT M05/M05 A3027 RMK A01 T10511054  RH  098%=      5-min Rain = 0
KPD3 121154Z 28004KT M05/M05 A3027 RMK A01 T10491053  RH  098%=      5-min Rain = 0
KPD3 121155Z 27004KT M05/M06 A3027 RMK A01 T10511055  RH  097%=      5-min Rain = 0
KPD3 121156Z 27004KT M05/M06 A3027 RMK A01 T10511057  RH  096%=      5-min Rain = 0
KPD3 121157Z 27004KT M05/M06 A3027 RMK A01 T10541061  RH  095%=      5-min Rain = 0
KPD3 121158Z 27004KT M06/M06 A3027 RMK A01 T10551063  RH  094%=      5-min Rain = 0
KPD3 121159Z 27004KT M06/M07 A3027 RMK A01 T10581068  RH  093%=      5-min Rain = 0
KPD3 121200Z 27004KT M06/M07 A3027 RMK A01 T10601071  RH  092%=      5-min Rain = 0
KPD3 121201Z 27005KT M06/M07 A3027 RMK A01 T10611073  RH  092%=      5-min Rain = 0
KPD3 121202Z 27005KT M06/M07 A3027 RMK A01 T10621073  RH  092%=      5-min Rain = 0
KPD3 121203Z 27004KT M06/M07 A3027 RMK A01 T10591068  RH  093%=      5-min Rain = 0
KPD3 121204Z 27005KT M06/M06 A3027 RMK A01 T10561064  RH  094%=      5-min Rain = 0
KPD3 121205Z 27005KT M06/M06 A3027 RMK A01 T10551064  RH  094%=      5-min Rain = 0
KPD3 121206Z 27005KT M06/M07 A3027 RMK A01 T10561066  RH  092%=      5-min Rain = 0
KPD3 121207Z 27005KT M06/M07 A3027 RMK A01 T10571069  RH  092%=      5-min Rain = 0
KPD3 121208Z 27005KT M06/M07 A3027 RMK A01 T10581070  RH  091%=      5-min Rain = 0
KPD3 121209Z 26005KT M06/M07 A3027 RMK A01 T10591072  RH  091%=      5-min Rain = 0
KPD3 121210Z 26005KT M06/M07 A3027 RMK A01 T10601073  RH  091%=      5-min Rain = 0
KPD3 121211Z 26005KT M06/M07 A3027 RMK A01 T10621074  RH  091%=      5-min Rain = 0
KPD3 121212Z 26005KT M06/M08 A3027 RMK A01 T10621075  RH  091%=      5-min Rain = 0
KPD3 121213Z 26005KT M06/M07 A3027 RMK A01 T10621074  RH  091%=      5-min Rain = 0
KPD3 121214Z 26005KT M06/M07 A3027 RMK A01 T10611072  RH  092%=      5-min Rain = 0
KPD3 121215Z 27005KT M06/M07 A3027 RMK A01 T10611071  RH  092%=      5-min Rain = 0
KPD3 121216Z 28004KT M06/M07 A3027 RMK A01 T10601071  RH  092%=      5-min Rain = 0
KPD3 121217Z 28004KT M06/M07 A3027 RMK A01 T10621073  RH  092%=      5-min Rain = 0
KPD3 121218Z 28004KT M06/M08 A3027 RMK A01 T10631075  RH  091%=      5-min Rain = 0
KPD3 121219Z 28004KT M06/M08 A3027 RMK A01 T10641076  RH  091%=      5-min Rain = 0
KPD3 121220Z 28004KT M06/M08 A3027 RMK A01 T10641076  RH  092%=      5-min Rain = 0
KPD3 121221Z 28004KT M07/M08 A3027 RMK A01 T10661078  RH  091%=      5-min Rain = 0
KPD3 121222Z 28003KT M07/M08 A3027 RMK A01 T10691082  RH  090%=      5-min Rain = 0
KPD3 121223Z 27003KT M07/M09 A3027 RMK A01 T10711085  RH  090%=      5-min Rain = 0
KPD3 121224Z 27003KT M07/M08 A3027 RMK A01 T10711084  RH  091%=      5-min Rain = 0
KPD3 121225Z 27003KT M07/M08 A3027 RMK A01 T10711083  RH  091%=      5-min Rain = 0
KPD3 121226Z 27003KT M07/M09 A3027 RMK A01 T10731086  RH  090%=      5-min Rain = 0
KPD3 121227Z 27003KT M08/M09 A3027 RMK A01 T10761092  RH  089%=      5-min Rain = 0
KPD3 121228Z 28003KT M08/M10 A3027 RMK A01 T10791097  RH  087%=      5-min Rain = 0
KPD3 121229Z 28003KT M08/M10 A3027 RMK A01 T10811099  RH  087%=      5-min Rain = 0
KPD3 121230Z 28004KT M08/M10 A3027 RMK A01 T10811097  RH  089%=      5-min Rain = 0
KPD3 121231Z 28003KT M08/M09 A3027 RMK A01 T10811094  RH  090%=      5-min Rain = 0
KPD3 121232Z 28003KT M08/M09 A3027 RMK A01 T10821094  RH  091%=      5-min Rain = 0
KPD3 121233Z 27004KT M08/M09 A3027 RMK A01 T10821094  RH  091%=      5-min Rain = 0
KPD3 121234Z 27004KT M08/M10 A3027 RMK A01 T10831095  RH  091%=      5-min Rain = 0
KPD3 121235Z 27004KT M08/M09 A3027 RMK A01 T10831094  RH  092%=      5-min Rain = 0
KPD3 121236Z 27004KT M08/M09 A3027 RMK A01 T10821092  RH  092%=      5-min Rain = 0
KPD3 121237Z 27004KT M08/M09 A3027 RMK A01 T10811091  RH  093%=      5-min Rain = 0
KPD3 121238Z 28004KT M08/M09 A3027 RMK A01 T10831093  RH  092%=      5-min Rain = 0
KPD3 121239Z 28003KT M09/M10 A3027 RMK A01 T10861098  RH  091%=      5-min Rain = 0
KPD3 121240Z 28003KT M09/M10 A3027 RMK A01 T10891102  RH  090%=      5-min Rain = 0
KPD3 121241Z 29003KT M09/M10 A3027 RMK A01 T10901104  RH  090%=      5-min Rain = 0
KPD3 121242Z 29003KT M09/M10 A3027 RMK A01 T10891102  RH  091%=      5-min Rain = 0
KPD3 121243Z 29003KT M09/M10 A3027 RMK A01 T10891101  RH  091%=      5-min Rain = 0
KPD3 121244Z 29003KT M09/M10 A3027 RMK A01 T10891100  RH  092%=      5-min Rain = 0
KPD3 121245Z 29003KT M09/M09 A3027 RMK A01 T10851094  RH  093%=      5-min Rain = 0
KPD3 121246Z 30003KT M08/M09 A3027 RMK A01 T10811088  RH  094%=      5-min Rain = 0
KPD3 121247Z 31004KT M08/M09 A3027 RMK A01 T10791086  RH  095%=      5-min Rain = 0
KPD3 121248Z 32004KT M08/M09 A3027 RMK A01 T10791086  RH  095%=      5-min Rain = 0
KPD3 121249Z 33004KT M08/M09 A3027 RMK A01 T10791086  RH  095%=      5-min Rain = 0
KPD3 121250Z 34003KT M08/M09 A3027 RMK A01 T10791085  RH  096%=      5-min Rain = 0
KPD3 121251Z 34003KT M08/M09 A3027 RMK A01 T10791085  RH  096%=      5-min Rain = 0
KPD3 121252Z 33003KT M08/M08 A3027 RMK A01 T10781083  RH  096%=      5-min Rain = 0
KPD3 121253Z 34003KT M07/M08 A3027 RMK A01 T10721076  RH  097%=      5-min Rain = 0
KPD3 121254Z 34003KT M07/M07 A3027 RMK A01 T10691072  RH  098%=      5-min Rain = 0
KPD3 121255Z 33003KT M07/M07 A3027 RMK A01 T10691072  RH  098%=      5-min Rain = 0
KPD3 121256Z 33002KT M07/M07 A3027 RMK A01 T10671070  RH  098%=      5-min Rain = 0
KPD3 121257Z 33002KT M07/M07 A3027 RMK A01 T10661069  RH  098%=      5-min Rain = 0
KPD3 121258Z 33002KT M07/M07 A3027 RMK A01 T10661069  RH  098%=      5-min Rain = 0
KPD3 121259Z 34002KT M07/M07 A3027 RMK A01 T10651068  RH  098%=      5-min Rain = 0
KPD3 121300Z 36002KT M06/M06 A3027 RMK A01 T10621064  RH  098%=      5-min Rain = 0
KPD3 121301Z 00002KT M06/M06 A3027 RMK A01 T10601062  RH  099%=      5-min Rain = 0
KPD3 121302Z 35002KT M06/M06 A3027 RMK A01 T10591062  RH  098%=      5-min Rain = 0
KPD3 121303Z 00002KT M06/M06 A3027 RMK A01 T10601062  RH  098%=      5-min Rain = 0
KPD3 121304Z 36002KT M06/M06 A3027 RMK A01 T10621064  RH  098%=      5-min Rain = 0
KPD3 121305Z 01001KT M06/M06 A3027 RMK A01 T10601063  RH  098%=      5-min Rain = 0
KPD3 121306Z 02001KT M06/M06 A3027 RMK A01 T10611063  RH  098%=      5-min Rain = 0
KPD3 121307Z 03001KT M06/M06 A3027 RMK A01 T10591062  RH  098%=      5-min Rain = 0
KPD3 121308Z 04001KT M06/M06 A3027 RMK A01 T10581061  RH  098%=      5-min Rain = 0
KPD3 121309Z 04001KT M06/M06 A3027 RMK A01 T10571060  RH  098%=      5-min Rain = 0
KPD3 121310Z 04001KT M06/M06 A3027 RMK A01 T10561058  RH  098%=      5-min Rain = 0
KPD3 121311Z 04000KT M06/M06 A3027 RMK A01 T10561058  RH  098%=      5-min Rain = 0
KPD3 121312Z 28000KT M06/M06 A3027 RMK A01 T10551057  RH  098%=      5-min Rain = 0
KPD3 121313Z 27000KT M05/M06 A3027 RMK A01 T10541056  RH  098%=      5-min Rain = 0
KPD3 121314Z 28000KT M05/M06 A3027 RMK A01 T10531056  RH  098%=      5-min Rain = 0
KPD3 121315Z 27001KT M05/M06 A3027 RMK A01 T10541056  RH  098%=      5-min Rain = 0
KPD3 121316Z 26001KT M05/M06 A3027 RMK A01 T10541057  RH  098%=      5-min Rain = 0
KPD3 121317Z 26001KT M06/M06 A3027 RMK A01 T10551057  RH  098%=      5-min Rain = 0
KPD3 121318Z 27001KT M06/M06 A3027 RMK A01 T10551057  RH  098%=      5-min Rain = 0
KPD3 121319Z 26001KT M06/M06 A3027 RMK A01 T10571060  RH  098%=      5-min Rain = 0
KPD3 121320Z 26002KT M06/M06 A3027 RMK A01 T10581061  RH  098%=      5-min Rain = 0
KPD3 121321Z 26002KT M06/M06 A3027 RMK A01 T10581061  RH  098%=      5-min Rain = 0
KPD3 121322Z 25002KT M06/M06 A3027 RMK A01 T10581061  RH  098%=      5-min Rain = 0
KPD3 121323Z 26002KT M06/M06 A3027 RMK A01 T10581061  RH  098%=      5-min Rain = 0
KPD3 121324Z 26002KT M06/M06 A3027 RMK A01 T10581062  RH  098%=      5-min Rain = 0
KPD3 121325Z 26003KT M06/M06 A3027 RMK A01 T10601063  RH  097%=      5-min Rain = 0
KPD3 121326Z 26003KT M06/M06 A3028 RMK A01 T10601063  RH  097%=      5-min Rain = 0
KPD3 121327Z 26003KT M06/M06 A3027 RMK A01 T10591062  RH  097%=      5-min Rain = 0
KPD3 121328Z 26004KT M06/M06 A3027 RMK A01 T10571060  RH  098%=      5-min Rain = 0
KPD3 121329Z 26004KT M06/M06 A3028 RMK A01 T10561059  RH  098%=      5-min Rain = 0
KPD3 121330Z 26004KT M06/M06 A3028 RMK A01 T10561059  RH  098%=      5-min Rain = 0
KPD3 121331Z 27005KT M06/M06 A3028 RMK A01 T10561060  RH  097%=      5-min Rain = 0
KPD3 121332Z 27005KT M06/M06 A3028 RMK A01 T10571061  RH  097%=      5-min Rain = 0
KPD3 121333Z 27005KT M06/M06 A3028 RMK A01 T10581063  RH  096%=      5-min Rain = 0
KPD3 121334Z 27005KT M06/M06 A3028 RMK A01 T10581064  RH  096%=      5-min Rain = 0
KPD3 121335Z 28005KT M06/M07 A3028 RMK A01 T10591066  RH  095%=      5-min Rain = 0
KPD3 121336Z 28005KT M06/M07 A3028 RMK A01 T10591066  RH  095%=      5-min Rain = 0
KPD3 121337Z 29005KT M06/M07 A3028 RMK A01 T10581065  RH  095%=      5-min Rain = 0
KPD3 121338Z 28005KT M06/M07 A3028 RMK A01 T10601068  RH  094%=      5-min Rain = 0
KPD3 121339Z 28005KT M07/M08 A3028 RMK A01 T10651075  RH  093%=      5-min Rain = 0
KPD3 121340Z 29004KT M07/M08 A3028 RMK A01 T10701083  RH  091%=      5-min Rain = 0
KPD3 121341Z 30004KT M08/M09 A3028 RMK A01 T10761090  RH  090%=      5-min Rain = 0
KPD3 121342Z 31003KT M08/M10 A3028 RMK A01 T10811097  RH  089%=      5-min Rain = 0
KPD3 121343Z 32003KT M09/M10 A3028 RMK A01 T10851100  RH  089%=      5-min Rain = 0
KPD3 121344Z 32003KT M09/M10 A3028 RMK A01 T10871102  RH  089%=      5-min Rain = 0
KPD3 121345Z 31003KT M09/M10 A3028 RMK A01 T10871098  RH  091%=      5-min Rain = 0
KPD3 121346Z 31003KT M08/M09 A3028 RMK A01 T10821091  RH  093%=      5-min Rain = 0
KPD3 121347Z 30003KT M08/M09 A3028 RMK A01 T10781085  RH  095%=      5-min Rain = 0
KPD3 121348Z 29003KT M07/M08 A3028 RMK A01 T10741080  RH  096%=      5-min Rain = 0
KPD3 121349Z 29003KT M07/M08 A3028 RMK A01 T10731078  RH  096%=      5-min Rain = 0
KPD3 121350Z 28003KT M07/M08 A3028 RMK A01 T10721077  RH  096%=      5-min Rain = 0
KPD3 121351Z 28002KT M07/M07 A3028 RMK A01 T10691074  RH  096%=      5-min Rain = 0
KPD3 121352Z 28003KT M07/M07 A3028 RMK A01 T10671072  RH  096%=      5-min Rain = 0
KPD3 121353Z 28003KT M07/M07 A3028 RMK A01 T10651070  RH  096%=      5-min Rain = 0
KPD3 121354Z 29003KT M06/M07 A3028 RMK A01 T10641070  RH  096%=      5-min Rain = 0
KPD3 121355Z 29003KT M07/M07 A3028 RMK A01 T10651071  RH  095%=      5-min Rain = 0
KPD3 121356Z 30003KT M07/M07 A3028 RMK A01 T10661074  RH  094%=      5-min Rain = 0
KPD3 121357Z 30003KT M07/M08 A3028 RMK A01 T10681077  RH  093%=      5-min Rain = 0
KPD3 121358Z 31003KT M07/M08 A3028 RMK A01 T10691078  RH  093%=      5-min Rain = 0
KPD3 121359Z 33002KT M07/M08 A3028 RMK A01 T10691079  RH  093%=      5-min Rain = 0
KPD3 121400Z 34003KT M07/M08 A3028 RMK A01 T10701080  RH  093%=      5-min Rain = 0
KPD3 121401Z 34003KT M07/M08 A3028 RMK A01 T10731084  RH  092%=      5-min Rain = 0
KPD3 121402Z 35003KT M08/M09 A3028 RMK A01 T10761088  RH  091%=      5-min Rain = 0
KPD3 121403Z 34002KT M08/M09 A3028 RMK A01 T10771090  RH  091%=      5-min Rain = 0
KPD3 121404Z 34002KT M08/M09 A3028 RMK A01 T10771089  RH  091%=      5-min Rain = 0
KPD3 121405Z 32002KT M08/M09 A3028 RMK A01 T10761086  RH  092%=      5-min Rain = 0
KPD3 121406Z 34002KT M07/M08 A3028 RMK A01 T10741084  RH  093%=      5-min Rain = 0
KPD3 121407Z 35002KT M07/M08 A3028 RMK A01 T10731083  RH  093%=      5-min Rain = 0
KPD3 121408Z 34001KT M07/M08 A3028 RMK A01 T10731083  RH  093%=      5-min Rain = 0
KPD3 121409Z 32001KT M07/M08 A3027 RMK A01 T10731083  RH  093%=      5-min Rain = 0
KPD3 121410Z 33001KT M07/M08 A3027 RMK A01 T10731083  RH  093%=      5-min Rain = 0
KPD3 121411Z 32002KT M07/M08 A3027 RMK A01 T10731083  RH  093%=      5-min Rain = 0
KPD3 121412Z 34002KT M07/M08 A3027 RMK A01 T10721082  RH  093%=      5-min Rain = 0
KPD3 121413Z 34002KT M07/M08 A3027 RMK A01 T10711081  RH  093%=      5-min Rain = 0
KPD3 121414Z 35001KT M07/M08 A3027 RMK A01 T10711082  RH  092%=      5-min Rain = 0
KPD3 121415Z 01001KT M07/M08 A3027 RMK A01 T10711083  RH  092%=      5-min Rain = 0
KPD3 121416Z 36001KT M07/M08 A3027 RMK A01 T10711083  RH  092%=      5-min Rain = 0
KPD3 121417Z 33000KT M07/M08 A3027 RMK A01 T10711083  RH  092%=      5-min Rain = 0
KPD3 121418Z 29000KT M07/M08 A3027 RMK A01 T10701082  RH  092%=      5-min Rain = 0
KPD3 121419Z 32000KT M07/M08 A3027 RMK A01 T10701081  RH  092%=      5-min Rain = 0
KPD3 121420Z 01001KT M07/M08 A3027 RMK A01 T10701081  RH  092%=      5-min Rain = 0
KPD3 121421Z 02001KT M07/M08 A3027 RMK A01 T10691081  RH  091%=      5-min Rain = 0
KPD3 121422Z 02000KT M07/M08 A3027 RMK A01 T10691081  RH  091%=      5-min Rain = 0
KPD3 121423Z 23000KT M07/M08 A3027 RMK A01 T10681081  RH  091%=      5-min Rain = 0
KPD3 121424Z 24001KT M07/M08 A3027 RMK A01 T10681081  RH  091%=      5-min Rain = 0
KPD3 121425Z 23001KT M07/M08 A3027 RMK A01 T10681081  RH  091%=      5-min Rain = 0
KPD3 121426Z 00000KT M07/M08 A3027 RMK A01 T10661078  RH  091%=      5-min Rain = 0
KPD3 121427Z 00000KT M06/M07 A3027 RMK A01 T10631073  RH  092%=      5-min Rain = 0
KPD3 121428Z 17000KT M06/M07 A3027 RMK A01 T10601071  RH  093%=      5-min Rain = 0
KPD3 121429Z 19001KT M06/M07 A3027 RMK A01 T10591069  RH  092%=      5-min Rain = 0
KPD3 121430Z 22001KT M06/M07 A3027 RMK A01 T10591071  RH  091%=      5-min Rain = 0
KPD3 121431Z 22002KT M06/M08 A3027 RMK A01 T10611075  RH  090%=      5-min Rain = 0
KPD3 121432Z 23001KT M06/M08 A3027 RMK A01 T10621077  RH  089%=      5-min Rain = 0
KPD3 121433Z 23000KT M06/M08 A3027 RMK A01 T10621078  RH  089%=      5-min Rain = 0
KPD3 121434Z 00000KT M06/M08 A3027 RMK A01 T10621077  RH  089%=      5-min Rain = 0
KPD3 121435Z 00000KT M06/M08 A3027 RMK A01 T10611075  RH  090%=      5-min Rain = 0
KPD3 121436Z 02000KT M06/M07 A3027 RMK A01 T10611074  RH  090%=      5-min Rain = 0
KPD3 121437Z 01001KT M06/M07 A3027 RMK A01 T10601074  RH  090%=      5-min Rain = 0
KPD3 121438Z 00002KT M06/M07 A3027 RMK A01 T10601073  RH  091%=      5-min Rain = 0
KPD3 121439Z 36001KT M06/M07 A3027 RMK A01 T10591072  RH  091%=      5-min Rain = 0
KPD3 121440Z 34001KT M06/M07 A3027 RMK A01 T10581071  RH  091%=      5-min Rain = 0
KPD3 121441Z 35002KT M06/M07 A3027 RMK A01 T10571070  RH  091%=      5-min Rain = 0
KPD3 121442Z 01002KT M06/M07 A3027 RMK A01 T10561068  RH  091%=      5-min Rain = 0
KPD3 121443Z 01003KT M06/M07 A3027 RMK A01 T10551067  RH  091%=      5-min Rain = 0
KPD3 121444Z 01003KT M05/M07 A3027 RMK A01 T10541066  RH  092%=      5-min Rain = 0
KPD3 121445Z 00003KT M05/M06 A3027 RMK A01 T10531064  RH  092%=      5-min Rain = 0
KPD3 121446Z 00003KT M05/M06 A3027 RMK A01 T10511062  RH  092%=      5-min Rain = 0
KPD3 121447Z 35003KT M05/M06 A3027 RMK A01 T10501060  RH  093%=      5-min Rain = 0
KPD3 121448Z 35003KT M05/M06 A3027 RMK A01 T10481058  RH  093%=      5-min Rain = 0
KPD3 121449Z 34002KT M05/M06 A3027 RMK A01 T10471056  RH  093%=      5-min Rain = 0
KPD3 121450Z 34003KT M05/M06 A3027 RMK A01 T10471057  RH  093%=      5-min Rain = 0
KPD3 121451Z 34003KT M05/M06 A3027 RMK A01 T10471058  RH  092%=      5-min Rain = 0
KPD3 121452Z 34003KT M05/M06 A3027 RMK A01 T10471058  RH  092%=      5-min Rain = 0
KPD3 121453Z 34003KT M05/M06 A3027 RMK A01 T10471058  RH  092%=      5-min Rain = 0
KPD3 121454Z 34003KT M05/M06 A3027 RMK A01 T10461058  RH  092%=      5-min Rain = 0
KPD3 121455Z 33003KT M05/M06 A3027 RMK A01 T10461057  RH  092%=      5-min Rain = 0
KPD3 121456Z 33003KT M05/M06 A3027 RMK A01 T10451056  RH  092%=      5-min Rain = 0
KPD3 121457Z 33002KT M04/M06 A3027 RMK A01 T10441055  RH  092%=      5-min Rain = 0
KPD3 121458Z 33002KT M04/M06 A3027 RMK A01 T10441055  RH  092%=      5-min Rain = 0
KPD3 121459Z 33001KT M04/M05 A3027 RMK A01 T10421052  RH  093%=      5-min Rain = 0
KPD3 121500Z 34001KT M04/M05 A3027 RMK A01 T10411051  RH  093%=      5-min Rain = 0
KPD3 121501Z 35001KT M04/M05 A3027 RMK A01 T10401051  RH  093%=      5-min Rain = 0
KPD3 121502Z 35001KT M04/M05 A3027 RMK A01 T10401050  RH  092%=      5-min Rain = 0
KPD3 121503Z 35001KT M04/M05 A3027 RMK A01 T10391049  RH  092%=      5-min Rain = 0
KPD3 121504Z 35001KT M04/M05 A3027 RMK A01 T10371047  RH  093%=      5-min Rain = 0
KPD3 121505Z 34002KT M04/M05 A3027 RMK A01 T10371048  RH  092%=      5-min Rain = 0
KPD3 121506Z 33001KT M04/M05 A3027 RMK A01 T10361048  RH  092%=      5-min Rain = 0
KPD3 121507Z 33002KT M04/M05 A3027 RMK A01 T10351046  RH  092%=      5-min Rain = 0
KPD3 121508Z 32001KT M04/M05 A3027 RMK A01 T10351046  RH  092%=      5-min Rain = 0
KPD3 121509Z 34001KT M03/M05 A3027 RMK A01 T10341046  RH  092%=      5-min Rain = 0
KPD3 121510Z 32001KT M03/M05 A3027 RMK A01 T10341046  RH  092%=      5-min Rain = 0
KPD3 121511Z 33001KT M03/M04 A3027 RMK A01 T10331044  RH  092%=      5-min Rain = 0
KPD3 121512Z 33001KT M03/M04 A3027 RMK A01 T10331044  RH  092%=      5-min Rain = 0
KPD3 121513Z 33000KT M03/M05 A3027 RMK A01 T10331045  RH  091%=      5-min Rain = 0
KPD3 121514Z 33000KT M03/M04 A3027 RMK A01 T10321044  RH  091%=      5-min Rain = 0
KPD3 121515Z 00000KT M03/M04 A3027 RMK A01 T10321044  RH  091%=      5-min Rain = 0
KPD3 121516Z 29000KT M03/M04 A3027 RMK A01 T10311043  RH  092%=      5-min Rain = 0
KPD3 121517Z 30000KT M03/M04 A3027 RMK A01 T10301042  RH  092%=      5-min Rain = 0
KPD3 121518Z 29001KT M03/M04 A3027 RMK A01 T10301042  RH  091%=      5-min Rain = 0
KPD3 121519Z 30000KT M03/M04 A3027 RMK A01 T10291041  RH  091%=      5-min Rain = 0
KPD3 121520Z 33001KT M03/M04 A3027 RMK A01 T10281040  RH  092%=      5-min Rain = 0
KPD3 121521Z 34001KT M03/M04 A3027 RMK A01 T10281040  RH  092%=      5-min Rain = 0
KPD3 121522Z 35001KT M03/M04 A3027 RMK A01 T10271039  RH  091%=      5-min Rain = 0
KPD3 121523Z 35000KT M03/M04 A3027 RMK A01 T10261038  RH  092%=      5-min Rain = 0
KPD3 121524Z 35001KT M03/M04 A3027 RMK A01 T10251037  RH  092%=      5-min Rain = 0
KPD3 121525Z 00001KT M03/M04 A3027 RMK A01 T10251037  RH  091%=      5-min Rain = 0
KPD3 121526Z 35001KT M02/M04 A3027 RMK A01 T10241037  RH  091%=      5-min Rain = 0
KPD3 121527Z 34001KT M02/M04 A3027 RMK A01 T10231035  RH  091%=      5-min Rain = 0
KPD3 121528Z 33000KT M02/M04 A3027 RMK A01 T10221035  RH  091%=      5-min Rain = 0
KPD3 121529Z 31000KT M02/M04 A3027 RMK A01 T10221035  RH  091%=      5-min Rain = 0
KPD3 121530Z 00000KT M02/M04 A3027 RMK A01 T10211035  RH  090%=      5-min Rain = 0
KPD3 121531Z 26000KT M02/M04 A3027 RMK A01 T10201035  RH  090%=      5-min Rain = 0
KPD3 121532Z 27000KT M02/M03 A3027 RMK A01 T10181034  RH  089%=      5-min Rain = 0
KPD3 121533Z 00000KT M02/M04 A3027 RMK A01 T10181035  RH  088%=      5-min Rain = 0
KPD3 121534Z 00000KT M02/M03 A3027 RMK A01 T10171034  RH  088%=      5-min Rain = 0
KPD3 121535Z 00000KT M02/M03 A3027 RMK A01 T10151032  RH  088%=      5-min Rain = 0
KPD3 121536Z 26000KT M01/M03 A3027 RMK A01 T10131029  RH  089%=      5-min Rain = 0
KPD3 121537Z 31000KT M01/M03 A3027 RMK A01 T10101026  RH  089%=      5-min Rain = 0
KPD3 121538Z 32000KT M01/M03 A3027 RMK A01 T10101027  RH  088%=      5-min Rain = 0
KPD3 121539Z 32000KT M01/M03 A3027 RMK A01 T10101029  RH  087%=      5-min Rain = 0
KPD3 121540Z 32000KT M01/M03 A3027 RMK A01 T10091028  RH  087%=      5-min Rain = 0
KPD3 121541Z 30000KT M01/M03 A3027 RMK A01 T10091029  RH  086%=      5-min Rain = 0
KPD3 121542Z 25000KT M01/M03 A3027 RMK A01 T10101030  RH  086%=      5-min Rain = 0
KPD3 121543Z 25001KT M01/M03 A3027 RMK A01 T10081026  RH  087%=      5-min Rain = 0
KPD3 121544Z 26001KT M01/M03 A3027 RMK A01 T10071026  RH  087%=      5-min Rain = 0
KPD3 121545Z 26000KT M01/M03 A3027 RMK A01 T10061027  RH  086%=      5-min Rain = 0
KPD3 121546Z 29000KT M01/M02 A3027 RMK A01 T10051024  RH  087%=      5-min Rain = 0
KPD3 121547Z 31000KT M00/M02 A3027 RMK A01 T10041023  RH  087%=      5-min Rain = 0
KPD3 121548Z 28001KT M00/M02 A3027 RMK A01 T10031023  RH  087%=      5-min Rain = 0
KPD3 121549Z 29000KT M00/M02 A3027 RMK A01 T10021020  RH  087%=      5-min Rain = 0
KPD3 121550Z 30000KT M00/M02 A3027 RMK A01 T10011020  RH  087%=      5-min Rain = 0
KPD3 121551Z 30000KT 00/02 A3027 RMK A01 T00-00-20  RH  087%=      5-min Rain = 0
KPD3 121552Z 32001KT 00/02 A3027 RMK A01 T00000-19  RH  087%=      5-min Rain = 0
KPD3 121553Z 29000KT 00/M02 A3027 RMK A01 T00011019  RH  087%=      5-min Rain = 0
KPD3 121554Z 26001KT 00/M02 A3027 RMK A01 T00011020  RH  086%=      5-min Rain = 0
KPD3 121555Z 27000KT 00/M02 A3027 RMK A01 T00021018  RH  086%=      5-min Rain = 0
KPD3 121556Z 26000KT 00/M02 A3027 RMK A01 T00041016  RH  086%=      5-min Rain = 0
KPD3 121557Z 26000KT 01/M02 A3027 RMK A01 T00051015  RH  087%=      5-min Rain = 0
KPD3 121558Z 00000KT 01/M01 A3027 RMK A01 T00061014  RH  087%=      5-min Rain = 0
KPD3 121559Z 25001KT 01/M01 A3027 RMK A01 T00071013  RH  087%=      5-min Rain = 0
KPD3 121600Z 27001KT 01/M01 A3027 RMK A01 T00081012  RH  087%=      5-min Rain = 0
KPD3 121601Z 23000KT 01/M01 A3027 RMK A01 T00101010  RH  087%=      5-min Rain = 0
KPD3 121602Z 23001KT 01/M01 A3027 RMK A01 T00101010  RH  086%=      5-min Rain = 0
KPD3 121603Z 25001KT 01/M01 A3027 RMK A01 T00121008  RH  086%=      5-min Rain = 0
KPD3 121604Z 23001KT 01/M01 A3027 RMK A01 T00131008  RH  086%=      5-min Rain = 0
KPD3 121605Z 23001KT 01/M01 A3027 RMK A01 T00141007  RH  086%=      5-min Rain = 0
KPD3 121606Z 23001KT 02/M01 A3027 RMK A01 T00161008  RH  084%=      5-min Rain = 0
KPD3 121607Z 00000KT 02/M01 A3027 RMK A01 T00191005  RH  084%=      5-min Rain = 0
KPD3 121608Z 16000KT 02/M00 A3027 RMK A01 T00221003  RH  084%=      5-min Rain = 0
KPD3 121609Z 17000KT 03/00 A3027 RMK A01 T002500-0  RH  084%=      5-min Rain = 0
KPD3 121610Z 18001KT 03/00 A3027 RMK A01 T00290002  RH  083%=      5-min Rain = 0
KPD3 121611Z 20000KT 03/00 A3027 RMK A01 T00300001  RH  081%=      5-min Rain = 0
KPD3 121612Z 19001KT 03/00 A3027 RMK A01 T003200-0  RH  079%=      5-min Rain = 0
KPD3 121613Z 18001KT 03/00 A3027 RMK A01 T00340001  RH  079%=      5-min Rain = 0
KPD3 121614Z 20003KT 04/M00 A3027 RMK A01 T00351002  RH  077%=      5-min Rain = 0
KPD3 121615Z 19002KT 03/M01 A3027 RMK A01 T00341011  RH  072%=      5-min Rain = 0
KPD3 121616Z 18002KT 03/M02 A3027 RMK A01 T00331015  RH  071%=      5-min Rain = 0
KPD3 121617Z 18002KT 03/M02 A3027 RMK A01 T00331019  RH  069%=      5-min Rain = 0
KPD3 121618Z 17002KT 03/M02 A3027 RMK A01 T00341019  RH  068%=      5-min Rain = 0
KPD3 121619Z 18002KT 03/M02 A3027 RMK A01 T00341019  RH  069%=      5-min Rain = 0
KPD3 121620Z 18001KT 04/M02 A3027 RMK A01 T00351016  RH  070%=      5-min Rain = 0
KPD3 121621Z 17001KT 04/M01 A3027 RMK A01 T00361010  RH  071%=      5-min Rain = 0
KPD3 121622Z 16002KT 04/M01 A3027 RMK A01 T00381011  RH  070%=      5-min Rain = 0
KPD3 121623Z 15001KT 04/M01 A3027 RMK A01 T00391014  RH  068%=      5-min Rain = 0
KPD3 121624Z 16002KT 04/M01 A3027 RMK A01 T00401012  RH  069%=      5-min Rain = 0
KPD3 121625Z 17002KT 04/M01 A3027 RMK A01 T00411011  RH  069%=      5-min Rain = 0
KPD3 121626Z 17001KT 04/M01 A3027 RMK A01 T00421009  RH  069%=      5-min Rain = 0
KPD3 121627Z 17002KT 04/M01 A3027 RMK A01 T00441007  RH  070%=      5-min Rain = 0
KPD3 121628Z 17002KT 05/M01 A3027 RMK A01 T00451007  RH  069%=      5-min Rain = 0
KPD3 121629Z 18002KT 05/M01 A3027 RMK A01 T00461010  RH  067%=      5-min Rain = 0
KPD3 121630Z 18001KT 05/M01 A3027 RMK A01 T00461012  RH  066%=      5-min Rain = 0
KPD3 121631Z 20002KT 05/M01 A3027 RMK A01 T00461010  RH  067%=      5-min Rain = 0
KPD3 121632Z 19004KT 05/M01 A3027 RMK A01 T00461007  RH  068%=      5-min Rain = 0
KPD3 121633Z 20003KT 05/M01 A3027 RMK A01 T00461005  RH  069%=      5-min Rain = 0
KPD3 121634Z 18003KT 05/M01 A3027 RMK A01 T00451010  RH  068%=      5-min Rain = 0
KPD3 121635Z 17002KT 04/M01 A3027 RMK A01 T00441012  RH  067%=      5-min Rain = 0
KPD3 121636Z 17004KT 05/M01 A3027 RMK A01 T00451008  RH  068%=      5-min Rain = 0
KPD3 121637Z 17002KT 05/M01 A3027 RMK A01 T00461010  RH  067%=      5-min Rain = 0
KPD3 121638Z 18002KT 05/M01 A3027 RMK A01 T00471008  RH  068%=      5-min Rain = 0
KPD3 121639Z 21003KT 05/M00 A3027 RMK A01 T00491002  RH  069%=      5-min Rain = 0
KPD3 121640Z 20002KT 05/M01 A3027 RMK A01 T00501007  RH  067%=      5-min Rain = 0
KPD3 121641Z 21002KT 05/M01 A3027 RMK A01 T00501007  RH  066%=      5-min Rain = 0
KPD3 121642Z 22001KT 05/M01 A3027 RMK A01 T00511005  RH  067%=      5-min Rain = 0
KPD3 121643Z 22003KT 05/M01 A3027 RMK A01 T00511005  RH  067%=      5-min Rain = 0
KPD3 121644Z 23003KT 05/M01 A3027 RMK A01 T00521006  RH  066%=      5-min Rain = 0
KPD3 121645Z 22003KT 05/M01 A3027 RMK A01 T00511010  RH  065%=      5-min Rain = 0
KPD3 121646Z 23003KT 05/M01 A3027 RMK A01 T00511010  RH  065%=      5-min Rain = 0
KPD3 121647Z 24002KT 05/M01 A3027 RMK A01 T00501010  RH  065%=      5-min Rain = 0
KPD3 121648Z 23002KT 05/M01 A3027 RMK A01 T00511010  RH  065%=      5-min Rain = 0
KPD3 121649Z 23002KT 05/M01 A3027 RMK A01 T00511009  RH  065%=      5-min Rain = 0
KPD3 121650Z 23002KT 05/M01 A3027 RMK A01 T00511012  RH  064%=      5-min Rain = 0
KPD3 121651Z 25002KT 05/M02 A3027 RMK A01 T00501015  RH  062%=      5-min Rain = 0
KPD3 121652Z 21002KT 05/M02 A3027 RMK A01 T00501015  RH  063%=      5-min Rain = 0
KPD3 121653Z 22002KT 05/M02 A3027 RMK A01 T00501015  RH  063%=      5-min Rain = 0
KPD3 121654Z 22002KT 05/M01 A3027 RMK A01 T00511010  RH  064%=      5-min Rain = 0
KPD3 121655Z 26001KT 05/M01 A3027 RMK A01 T00541006  RH  066%=      5-min Rain = 0
KPD3 121656Z 27001KT 06/M01 A3027 RMK A01 T00551007  RH  064%=      5-min Rain = 0
KPD3 121657Z 28001KT 06/M01 A3028 RMK A01 T00561005  RH  065%=      5-min Rain = 0
KPD3 121658Z 32000KT 06/M01 A3028 RMK A01 T00571010  RH  062%=      5-min Rain = 0
KPD3 121659Z 08000KT 06/M01 A3028 RMK A01 T00561014  RH  061%=      5-min Rain = 0
KPD3 121700Z 09001KT 06/M01 A3028 RMK A01 T00571012  RH  061%=      5-min Rain = 0
KPD3 121701Z 07001KT 06/M01 A3028 RMK A01 T00571013  RH  060%=      5-min Rain = 0
KPD3 121702Z 03001KT 06/M01 A3028 RMK A01 T00581010  RH  062%=      5-min Rain = 0
KPD3 121703Z 03003KT 06/M01 A3028 RMK A01 T00591009  RH  062%=      5-min Rain = 0
KPD3 121704Z 02003KT 06/M01 A3028 RMK A01 T00591009  RH  062%=      5-min Rain = 0
KPD3 121705Z 03001KT 06/M01 A3028 RMK A01 T00591009  RH  062%=      5-min Rain = 0
KPD3 121706Z 04001KT 06/M01 A3028 RMK A01 T00591006  RH  063%=      5-min Rain = 0
KPD3 121707Z 11001KT 06/M01 A3028 RMK A01 T00601007  RH  062%=      5-min Rain = 0
KPD3 121708Z 17001KT 06/M01 A3028 RMK A01 T00611006  RH  062%=      5-min Rain = 0
KPD3 121709Z 19001KT 06/M01 A3028 RMK A01 T00611009  RH  061%=      5-min Rain = 0
KPD3 121710Z 18002KT 06/M01 A3028 RMK A01 T00611007  RH  061%=      5-min Rain = 0
KPD3 121711Z 13003KT 06/M01 A3027 RMK A01 T00611006  RH  062%=      5-min Rain = 0
KPD3 121712Z 10004KT 06/M00 A3027 RMK A01 T00621004  RH  062%=      5-min Rain = 0
KPD3 121713Z 10004KT 06/M00 A3027 RMK A01 T00621004  RH  063%=      5-min Rain = 0
KPD3 121714Z 10003KT 06/M01 A3027 RMK A01 T00621006  RH  062%=      5-min Rain = 0
KPD3 121715Z 08002KT 06/M01 A3027 RMK A01 T00611008  RH  062%=      5-min Rain = 0
KPD3 121716Z 07002KT 06/M01 A3027 RMK A01 T00601008  RH  062%=      5-min Rain = 0
KPD3 121717Z 09003KT 06/M01 A3027 RMK A01 T00611005  RH  063%=      5-min Rain = 0
KPD3 121718Z 10003KT 06/M00 A3027 RMK A01 T00631004  RH  062%=      5-min Rain = 0
KPD3 121719Z 09003KT 06/M01 A3027 RMK A01 T00641005  RH  061%=      5-min Rain = 0
KPD3 121720Z 10002KT 06/M01 A3027 RMK A01 T00641007  RH  060%=      5-min Rain = 0
KPD3 121721Z 09002KT 06/M01 A3027 RMK A01 T00641008  RH  060%=      5-min Rain = 0
KPD3 121722Z 08002KT 06/M01 A3027 RMK A01 T00641008  RH  060%=      5-min Rain = 0
KPD3 121723Z 09003KT 07/M01 A3027 RMK A01 T00651008  RH  059%=      5-min Rain = 0
KPD3 121724Z 10002KT 07/M01 A3027 RMK A01 T00661010  RH  059%=      5-min Rain = 0
KPD3 121725Z 11002KT 07/M01 A3027 RMK A01 T00661009  RH  059%=      5-min Rain = 0
KPD3 121726Z 09001KT 07/M01 A3027 RMK A01 T00661011  RH  058%=      5-min Rain = 0
KPD3 121727Z 07001KT 07/M01 A3027 RMK A01 T00671009  RH  058%=      5-min Rain = 0
KPD3 121728Z 10003KT 07/M01 A3027 RMK A01 T00691009  RH  058%=      5-min Rain = 0
KPD3 121729Z 11002KT 07/M01 A3027 RMK A01 T00701009  RH  057%=      5-min Rain = 0
KPD3 121730Z 08003KT 07/M01 A3027 RMK A01 T00711008  RH  057%=      5-min Rain = 0
KPD3 121731Z 09003KT 07/M00 A3027 RMK A01 T00711001  RH  060%=      5-min Rain = 0
KPD3 121732Z 09003KT 07/M00 A3027 RMK A01 T00701002  RH  060%=      5-min Rain = 0
KPD3 121733Z 09003KT 07/M00 A3027 RMK A01 T00701003  RH  060%=      5-min Rain = 0
KPD3 121734Z 11002KT 07/M00 A3027 RMK A01 T00701004  RH  059%=      5-min Rain = 0
KPD3 121735Z 10001KT 07/M00 A3027 RMK A01 T00701002  RH  060%=      5-min Rain = 0
KPD3 121736Z 10003KT 07/M00 A3027 RMK A01 T00721003  RH  059%=      5-min Rain = 0
KPD3 121737Z 10004KT 07/00 A3027 RMK A01 T00720002  RH  061%=      5-min Rain = 0
KPD3 121738Z 10004KT 07/00 A3027 RMK A01 T00720004  RH  062%=      5-min Rain = 0
KPD3 121739Z 09004KT 07/00 A3027 RMK A01 T00720002  RH  061%=      5-min Rain = 0
KPD3 121740Z 10004KT 07/00 A3027 RMK A01 T00710002  RH  061%=      5-min Rain = 0
KPD3 121741Z 10003KT 07/00 A3027 RMK A01 T007000-0  RH  061%=      5-min Rain = 0
KPD3 121742Z 11002KT 07/00 A3027 RMK A01 T00700000  RH  061%=      5-min Rain = 0
KPD3 121743Z 11003KT 07/00 A3027 RMK A01 T00720000  RH  060%=      5-min Rain = 0
KPD3 121744Z 09002KT 07/M00 A3027 RMK A01 T00741001  RH  059%=      5-min Rain = 0
KPD3 121745Z 09003KT 07/00 A3027 RMK A01 T00740001  RH  060%=      5-min Rain = 0
KPD3 121746Z 09004KT 08/01 A3027 RMK A01 T00760005  RH  061%=      5-min Rain = 0
KPD3 121747Z 09003KT 08/01 A3027 RMK A01 T00780005  RH  060%=      5-min Rain = 0
KPD3 121748Z 09003KT 08/00 A3027 RMK A01 T00770003  RH  059%=      5-min Rain = 0
KPD3 121749Z 10003KT 08/00 A3027 RMK A01 T00770001  RH  059%=      5-min Rain = 0
KPD3 121750Z 10003KT 08/00 A3027 RMK A01 T00770002  RH  059%=      5-min Rain = 0
KPD3 121751Z 11003KT 08/00 A3027 RMK A01 T00770001  RH  059%=      5-min Rain = 0
KPD3 121752Z 10004KT 08/00 A3026 RMK A01 T007800-0  RH  058%=      5-min Rain = 0
KPD3 121753Z 08004KT 08/01 A3026 RMK A01 T00800005  RH  059%=      5-min Rain = 0
KPD3 121754Z 08003KT 08/00 A3026 RMK A01 T00820001  RH  056%=      5-min Rain = 0
KPD3 121755Z 09003KT 08/00 A3026 RMK A01 T00830000  RH  056%=      5-min Rain = 0
KPD3 121756Z 13004KT 08/M00 A3026 RMK A01 T00831002  RH  055%=      5-min Rain = 0
KPD3 121757Z 13004KT 08/M00 A3026 RMK A01 T00831003  RH  054%=      5-min Rain = 0
KPD3 121758Z 12002KT 08/M01 A3026 RMK A01 T00831005  RH  054%=      5-min Rain = 0
KPD3 121759Z 12003KT 08/M01 A3026 RMK A01 T00831006  RH  054%=      5-min Rain = 0
KPD3 121800Z 17004KT 09/M00 A3026 RMK A01 T00851002  RH  054%=      5-min Rain = 0
KPD3 121801Z 13003KT 09/M01 A3026 RMK A01 T00871006  RH  052%=      5-min Rain = 0
KPD3 121802Z 12004KT 09/M01 A3026 RMK A01 T00881007  RH  051%=      5-min Rain = 0
KPD3 121803Z 12003KT 09/M01 A3026 RMK A01 T00881011  RH  050%=      5-min Rain = 0
KPD3 121804Z 13004KT 09/M01 A3026 RMK A01 T00871008  RH  051%=      5-min Rain = 0
KPD3 121805Z 11004KT 09/M01 A3026 RMK A01 T00881006  RH  052%=      5-min Rain = 0
KPD3 121806Z 11004KT 09/M01 A3026 RMK A01 T00881007  RH  051%=      5-min Rain = 0
KPD3 121807Z 11004KT 09/M01 A3026 RMK A01 T00891006  RH  051%=      5-min Rain = 0
KPD3 121808Z 12004KT 09/M01 A3026 RMK A01 T00901005  RH  051%=      5-min Rain = 0
KPD3 121809Z 13004KT 09/M01 A3026 RMK A01 T00901006  RH  051%=      5-min Rain = 0
KPD3 121810Z 15004KT 09/M01 A3026 RMK A01 T00921007  RH  050%=      5-min Rain = 0
KPD3 121811Z 17004KT 09/M01 A3025 RMK A01 T00931009  RH  049%=      5-min Rain = 0
KPD3 121812Z 18003KT 09/M02 A3025 RMK A01 T00931016  RH  046%=      5-min Rain = 0
KPD3 121813Z 17003KT 09/M02 A3025 RMK A01 T00941015  RH  047%=      5-min Rain = 0
KPD3 121814Z 16002KT 10/M02 A3025 RMK A01 T00951016  RH  046%=      5-min Rain = 0
KPD3 121815Z 16002KT 10/M02 A3025 RMK A01 T00971016  RH  045%=      5-min Rain = 0
KPD3 121816Z 15002KT 10/M02 A3025 RMK A01 T00971019  RH  044%=      5-min Rain = 0
KPD3 121817Z 13003KT 10/M01 A3025 RMK A01 T00991012  RH  046%=      5-min Rain = 0
KPD3 121818Z 14004KT 10/M01 A3025 RMK A01 T00991010  RH  046%=      5-min Rain = 0
KPD3 121819Z 17005KT 10/M01 A3025 RMK A01 T01001011  RH  046%=      5-min Rain = 0
KPD3 121820Z 16004KT 10/M02 A3025 RMK A01 T00981016  RH  045%=      5-min Rain = 0
KPD3 121821Z 16003KT 10/M02 A3025 RMK A01 T00971019  RH  044%=      5-min Rain = 0
KPD3 121822Z 16002KT 10/M02 A3025 RMK A01 T00961022  RH  044%=      5-min Rain = 0
KPD3 121823Z 17002KT 10/M02 A3025 RMK A01 T00961021  RH  044%=      5-min Rain = 0
KPD3 121824Z 16002KT 10/M02 A3025 RMK A01 T00981020  RH  044%=      5-min Rain = 0
KPD3 121825Z 17003KT 10/M02 A3025 RMK A01 T00981019  RH  044%=      5-min Rain = 0
KPD3 121826Z 16004KT 10/M02 A3025 RMK A01 T00981019  RH  044%=      5-min Rain = 0
KPD3 121827Z 15005KT 10/M01 A3025 RMK A01 T00991013  RH  046%=      5-min Rain = 0
KPD3 121828Z 14005KT 10/M02 A3025 RMK A01 T01001015  RH  045%=      5-min Rain = 0
KPD3 121829Z 17006KT 10/M02 A3025 RMK A01 T01011015  RH  044%=      5-min Rain = 0
KPD3 121830Z 18004KT 10/M02 A3025 RMK A01 T01001020  RH  043%=      5-min Rain = 0
KPD3 121831Z 16004KT 10/M02 A3025 RMK A01 T01001021  RH  043%=      5-min Rain = 0
KPD3 121832Z 16003KT 10/M02 A3025 RMK A01 T01011021  RH  042%=      5-min Rain = 0
KPD3 121833Z 14005KT 10/M02 A3025 RMK A01 T01021019  RH  043%=      5-min Rain = 0
KPD3 121834Z 13005KT 10/M02 A3024 RMK A01 T01021021  RH  042%=      5-min Rain = 0
KPD3 121835Z 15003KT 10/M02 A3024 RMK A01 T01021019  RH  043%=      5-min Rain = 0
KPD3 121836Z 18005KT 10/M02 A3024 RMK A01 T01031020  RH  042%=      5-min Rain = 0
KPD3 121837Z 18006KT 11/M02 A3024 RMK A01 T01051021  RH  041%=      5-min Rain = 0
KPD3 121838Z 19004KT 11/M03 A3024 RMK A01 T01061030  RH  038%=      5-min Rain = 0
KPD3 121839Z 22003KT 10/M03 A3024 RMK A01 T01041030  RH  039%=      5-min Rain = 0
KPD3 121840Z 15004KT 11/M02 A3024 RMK A01 T01051024  RH  041%=      5-min Rain = 0
KPD3 121841Z 17004KT 11/M03 A3024 RMK A01 T01061025  RH  040%=      5-min Rain = 0
KPD3 121842Z 17002KT 11/M03 A3024 RMK A01 T01071028  RH  039%=      5-min Rain = 0
KPD3 121843Z 12002KT 11/M03 A3024 RMK A01 T01071031  RH  038%=      5-min Rain = 0
KPD3 121844Z 13002KT 11/M03 A3024 RMK A01 T01081028  RH  038%=      5-min Rain = 0
KPD3 121845Z 16003KT 11/M03 A3024 RMK A01 T01081028  RH  038%=      5-min Rain = 0
KPD3 121846Z 15004KT 11/M03 A3024 RMK A01 T01091027  RH  038%=      5-min Rain = 0
KPD3 121847Z 15004KT 11/M03 A3024 RMK A01 T01101030  RH  037%=      5-min Rain = 0
KPD3 121848Z 16004KT 11/M03 A3024 RMK A01 T01101032  RH  037%=      5-min Rain = 0
KPD3 121849Z 15003KT 11/M03 A3024 RMK A01 T01091032  RH  037%=      5-min Rain = 0
KPD3 121850Z 14004KT 11/M03 A3024 RMK A01 T01101030  RH  037%=      5-min Rain = 0
KPD3 121851Z 14004KT 11/M03 A3023 RMK A01 T01121032  RH  036%=      5-min Rain = 0
KPD3 121852Z 14005KT 11/M03 A3023 RMK A01 T01131034  RH  035%=      5-min Rain = 0
KPD3 121853Z 13004KT 11/M04 A3023 RMK A01 T01141035  RH  035%=      5-min Rain = 0
KPD3 121854Z 16005KT 11/M03 A3023 RMK A01 T01141034  RH  035%=      5-min Rain = 0
KPD3 121855Z 21004KT 12/M05 A3023 RMK A01 T01151046  RH  032%=      5-min Rain = 0
KPD3 121856Z 25005KT 11/M06 A3023 RMK A01 T01141057  RH  030%=      5-min Rain = 0
KPD3 121857Z 23005KT 12/M06 A3023 RMK A01 T01151061  RH  029%=      5-min Rain = 0
KPD3 121858Z 25004KT 12/M07 A3023 RMK A01 T01151071  RH  027%=      5-min Rain = 0
KPD3 121859Z 25005KT 11/M07 A3023 RMK A01 T01131070  RH  027%=      5-min Rain = 0
KPD3 121900Z 23004KT 11/M06 A3023 RMK A01 T01141064  RH  028%=      5-min Rain = 0
KPD3 121901Z 23002KT 11/M07 A3023 RMK A01 T01121069  RH  027%=      5-min Rain = 0
KPD3 121902Z 22002KT 11/M07 A3023 RMK A01 T01121068  RH  028%=      5-min Rain = 0
KPD3 121903Z 23003KT 11/M06 A3023 RMK A01 T01141059  RH  029%=      5-min Rain = 0
KPD3 121904Z 22002KT 12/M06 A3022 RMK A01 T01151059  RH  029%=      5-min Rain = 0
KPD3 121905Z 22003KT 12/M05 A3022 RMK A01 T01151054  RH  030%=      5-min Rain = 0
KPD3 121906Z 21006KT 12/M06 A3022 RMK A01 T01171055  RH  030%=      5-min Rain = 0
KPD3 121907Z 19007KT 12/M05 A3022 RMK A01 T01171054  RH  030%=      5-min Rain = 0
KPD3 121908Z 18005KT 12/M06 A3022 RMK A01 T01171057  RH  029%=      5-min Rain = 0
KPD3 121909Z 18005KT 12/M06 A3022 RMK A01 T01151056  RH  030%=      5-min Rain = 0
KPD3 121910Z 17004KT 11/M06 A3022 RMK A01 T01141060  RH  029%=      5-min Rain = 0
KPD3 121911Z 20006KT 11/M06 A3022 RMK A01 T01141059  RH  029%=      5-min Rain = 0
KPD3 121912Z 19006KT 12/M06 A3022 RMK A01 T01161059  RH  029%=      5-min Rain = 0
KPD3 121913Z 20006KT 12/M06 A3022 RMK A01 T01161060  RH  029%=      5-min Rain = 0
KPD3 121914Z 20005KT 12/M06 A3022 RMK A01 T01161063  RH  028%=      5-min Rain = 0
KPD3 121915Z 17003KT 12/M06 A3022 RMK A01 T01151061  RH  029%=      5-min Rain = 0
KPD3 121916Z 23003KT 12/M06 A3022 RMK A01 T01181056  RH  029%=      5-min Rain = 0
KPD3 121917Z 26005KT 12/M06 A3022 RMK A01 T01211063  RH  027%=      5-min Rain = 0
KPD3 121918Z 26004KT 12/M08 A3022 RMK A01 T01231076  RH  024%=      5-min Rain = 0
KPD3 121919Z 26004KT 12/M08 A3022 RMK A01 T01211083  RH  023%=      5-min Rain = 0
KPD3 121920Z 25005KT 12/M08 A3022 RMK A01 T01201076  RH  025%=      5-min Rain = 0
KPD3 121921Z 24007KT 12/M08 A3022 RMK A01 T01211079  RH  024%=      5-min Rain = 0
KPD3 121922Z 25006KT 12/M08 A3022 RMK A01 T01211084  RH  023%=      5-min Rain = 0
KPD3 121923Z 24006KT 12/M09 A3022 RMK A01 T01201087  RH  023%=      5-min Rain = 0
KPD3 121924Z 24004KT 12/M09 A3022 RMK A01 T01181090  RH  022%=      5-min Rain = 0
KPD3 121925Z 22004KT 12/M09 A3022 RMK A01 T01171087  RH  023%=      5-min Rain = 0
KPD3 121926Z 25005KT 12/M08 A3021 RMK A01 T01171082  RH  024%=      5-min Rain = 0
KPD3 121927Z 26006KT 12/M08 A3021 RMK A01 T01181083  RH  024%=      5-min Rain = 0
KPD3 121928Z 27006KT 12/M08 A3021 RMK A01 T01201076  RH  025%=      5-min Rain = 0
KPD3 121929Z 26007KT 12/M08 A3021 RMK A01 T01211075  RH  025%=      5-min Rain = 0
KPD3 121930Z 26005KT 12/M08 A3021 RMK A01 T01211076  RH  025%=      5-min Rain = 0
KPD3 121931Z 26007KT 12/M08 A3021 RMK A01 T01201083  RH  023%=      5-min Rain = 0
KPD3 121932Z 25007KT 12/M08 A3021 RMK A01 T01191082  RH  024%=      5-min Rain = 0
KPD3 121933Z 25005KT 12/M08 A3021 RMK A01 T01191077  RH  025%=      5-min Rain = 0
KPD3 121934Z 24004KT 12/M08 A3021 RMK A01 T01181078  RH  025%=      5-min Rain = 0
KPD3 121935Z 24006KT 12/M08 A3021 RMK A01 T01181075  RH  025%=      5-min Rain = 0
KPD3 121936Z 26004KT 12/M07 A3021 RMK A01 T01181071  RH  026%=      5-min Rain = 0
KPD3 121937Z 22006KT 12/M07 A3021 RMK A01 T01181067  RH  027%=      5-min Rain = 0
KPD3 121938Z 22005KT 12/M06 A3021 RMK A01 T01181056  RH  029%=      5-min Rain = 0
KPD3 121939Z 22006KT 12/M06 A3021 RMK A01 T01191055  RH  029%=      5-min Rain = 0
KPD3 121940Z 22006KT 12/M06 A3021 RMK A01 T01181064  RH  027%=      5-min Rain = 0
KPD3 121941Z 24008KT 12/M06 A3021 RMK A01 T01161063  RH  028%=      5-min Rain = 0
KPD3 121942Z 24007KT 12/M06 A3021 RMK A01 T01161064  RH  028%=      5-min Rain = 0
KPD3 121943Z 23007KT 12/M06 A3021 RMK A01 T01171062  RH  028%=      5-min Rain = 0
KPD3 121944Z 24005KT 12/M07 A3021 RMK A01 T01161065  RH  028%=      5-min Rain = 0
KPD3 121945Z 24004KT 12/M06 A3021 RMK A01 T01161063  RH  028%=      5-min Rain = 0
KPD3 121946Z 22007KT 12/M06 A3021 RMK A01 T01171060  RH  028%=      5-min Rain = 0
KPD3 121947Z 23005KT 12/M06 A3021 RMK A01 T01161063  RH  028%=      5-min Rain = 0
KPD3 121948Z 24003KT 12/M06 A3021 RMK A01 T01161064  RH  028%=      5-min Rain = 0
KPD3 121949Z 21003KT 12/M06 A3021 RMK A01 T01151063  RH  028%=      5-min Rain = 0
KPD3 121950Z 25005KT 12/M06 A3021 RMK A01 T01171059  RH  029%=      5-min Rain = 0
KPD3 121951Z 25005KT 12/M07 A3021 RMK A01 T01191066  RH  027%=      5-min Rain = 0
KPD3 121952Z 27003KT 12/M07 A3021 RMK A01 T01181068  RH  027%=      5-min Rain = 0
KPD3 121953Z 27003KT 12/M06 A3021 RMK A01 T01191063  RH  027%=      5-min Rain = 0
KPD3 121954Z 26005KT 12/M06 A3021 RMK A01 T01201060  RH  028%=      5-min Rain = 0
KPD3 121955Z 26004KT 12/M06 A3021 RMK A01 T01211062  RH  027%=      5-min Rain = 0
KPD3 121956Z 25006KT 12/M06 A3021 RMK A01 T01201061  RH  028%=      5-min Rain = 0
KPD3 121957Z 25006KT 12/M06 A302 RMK A01 T01211061  RH  028%=      5-min Rain = 0
KPD3 121958Z 25005KT 12/M06 A302 RMK A01 T01221060  RH  028%=      5-min Rain = 0
KPD3 121959Z 27006KT 12/M07 A302 RMK A01 T01221065  RH  027%=      5-min Rain = 0
KPD3 122000Z 26005KT 12/M07 A302 RMK A01 T01211069  RH  026%=      5-min Rain = 0
KPD3 122001Z 27005KT 12/M06 A302 RMK A01 T01211064  RH  027%=      5-min Rain = 0
KPD3 122002Z 24005KT 12/M06 A302 RMK A01 T01231061  RH  027%=      5-min Rain = 0
KPD3 122003Z 25007KT 12/M05 A302 RMK A01 T01231054  RH  029%=      5-min Rain = 0
KPD3 122004Z 25007KT 12/M05 A302 RMK A01 T01231054  RH  029%=      5-min Rain = 0
KPD3 122005Z 25006KT 12/M06 A302 RMK A01 T01231061  RH  027%=      5-min Rain = 0
KPD3 122006Z 23004KT 12/M07 A302 RMK A01 T01201065  RH  027%=      5-min Rain = 0
KPD3 122007Z 22002KT 12/M06 A302 RMK A01 T01201062  RH  027%=      5-min Rain = 0
KPD3 122008Z 18002KT 12/M06 A302 RMK A01 T01211063  RH  027%=      5-min Rain = 0
KPD3 122009Z 21003KT 12/M06 A302 RMK A01 T01221061  RH  027%=      5-min Rain = 0
KPD3 122010Z 23006KT 12/M06 A302 RMK A01 T01241055  RH  028%=      5-min Rain = 0
KPD3 122011Z 24005KT 12/M05 A302 RMK A01 T01231051  RH  029%=      5-min Rain = 0
KPD3 122012Z 23006KT 12/M04 A302 RMK A01 T01241041  RH  031%=      5-min Rain = 0
KPD3 122013Z 25005KT 13/M04 A302 RMK A01 T01261043  RH  030%=      5-min Rain = 0
KPD3 122014Z 27004KT 13/M06 A302 RMK A01 T01261056  RH  028%=      5-min Rain = 0
KPD3 122015Z 30004KT 12/M06 A302 RMK A01 T01241064  RH  026%=      5-min Rain = 0
KPD3 122016Z 29004KT 12/M06 A302 RMK A01 T01231062  RH  027%=      5-min Rain = 0
KPD3 122017Z 26003KT 12/M06 A302 RMK A01 T01221062  RH  027%=      5-min Rain = 0
KPD3 122018Z 26003KT 12/M06 A302 RMK A01 T01221064  RH  027%=      5-min Rain = 0
KPD3 122019Z 28004KT 12/M06 A302 RMK A01 T01221061  RH  027%=      5-min Rain = 0
KPD3 122020Z 25003KT 12/M06 A302 RMK A01 T01221061  RH  027%=      5-min Rain = 0
KPD3 122021Z 23003KT 12/M06 A302 RMK A01 T01221063  RH  027%=      5-min Rain = 0
KPD3 122022Z 23005KT 12/M06 A302 RMK A01 T01231060  RH  027%=      5-min Rain = 0
KPD3 122023Z 21004KT 12/M06 A302 RMK A01 T01231059  RH  028%=      5-min Rain = 0
KPD3 122024Z 21003KT 12/M06 A302 RMK A01 T01221057  RH  028%=      5-min Rain = 0
KPD3 122025Z 21003KT 12/M06 A302 RMK A01 T01231057  RH  028%=      5-min Rain = 0
KPD3 122026Z 23002KT 12/M06 A302 RMK A01 T01231058  RH  028%=      5-min Rain = 0
KPD3 122027Z 21003KT 12/M06 A302 RMK A01 T01241057  RH  028%=      5-min Rain = 0
KPD3 122028Z 22004KT 13/M05 A302 RMK A01 T01251051  RH  029%=      5-min Rain = 0
KPD3 122029Z 24006KT 13/M05 A302 RMK A01 T01251052  RH  029%=      5-min Rain = 0
KPD3 122030Z 24005KT 13/M06 A302 RMK A01 T01251055  RH  028%=      5-min Rain = 0
KPD3 122031Z 24004KT 12/M05 A302 RMK A01 T01231054  RH  029%=      5-min Rain = 0
KPD3 122032Z 22004KT 13/M05 A302 RMK A01 T01251054  RH  028%=      5-min Rain = 0
KPD3 122033Z 25002KT 13/M06 A302 RMK A01 T01251056  RH  028%=      5-min Rain = 0
KPD3 122034Z 26000KT 13/M06 A302 RMK A01 T01251058  RH  027%=      5-min Rain = 0
KPD3 122035Z 00000KT 13/M06 A302 RMK A01 T01251058  RH  027%=      5-min Rain = 0
KPD3 122036Z 24005KT 13/M05 A302 RMK A01 T01281052  RH  028%=      5-min Rain = 0
KPD3 122037Z 27006KT 13/M05 A302 RMK A01 T01301051  RH  028%=      5-min Rain = 0
KPD3 122038Z 27005KT 13/M05 A302 RMK A01 T01311053  RH  027%=      5-min Rain = 0
KPD3 122039Z 29004KT 13/M06 A302 RMK A01 T01291058  RH  027%=      5-min Rain = 0
KPD3 122040Z 30001KT 13/M06 A302 RMK A01 T01281057  RH  027%=      5-min Rain = 0
KPD3 122041Z 21002KT 13/M06 A302 RMK A01 T01291057  RH  027%=      5-min Rain = 0
KPD3 122042Z 20005KT 13/M05 A302 RMK A01 T01291052  RH  028%=      5-min Rain = 0
KPD3 122043Z 20005KT 13/M05 A302 RMK A01 T01301047  RH  029%=      5-min Rain = 0
KPD3 122044Z 19004KT 13/M05 A302 RMK A01 T01281051  RH  028%=      5-min Rain = 0
KPD3 122045Z 20004KT 13/M05 A302 RMK A01 T01271053  RH  028%=      5-min Rain = 0
KPD3 122046Z 19003KT 13/M05 A302 RMK A01 T01261049  RH  029%=      5-min Rain = 0
KPD3 122047Z 19002KT 13/M05 A302 RMK A01 T01261048  RH  029%=      5-min Rain = 0
KPD3 122048Z 17004KT 13/M05 A302 RMK A01 T01291047  RH  029%=      5-min Rain = 0
KPD3 122049Z 19004KT 13/M05 A3019 RMK A01 T01311053  RH  027%=      5-min Rain = 0
KPD3 122050Z 20003KT 13/M06 A3019 RMK A01 T01291056  RH  027%=      5-min Rain = 0
KPD3 122051Z 23005KT 13/M05 A3019 RMK A01 T01291051  RH  028%=      5-min Rain = 0
KPD3 122052Z 23005KT 13/M05 A3019 RMK A01 T01301049  RH  028%=      5-min Rain = 0
KPD3 122053Z 21004KT 13/M05 A3019 RMK A01 T01311049  RH  028%=      5-min Rain = 0
KPD3 122054Z 22004KT 13/M05 A3019 RMK A01 T01321052  RH  027%=      5-min Rain = 0
KPD3 122055Z 20002KT 13/M06 A3019 RMK A01 T01301055  RH  027%=      5-min Rain = 0
KPD3 122056Z 20003KT 13/M05 A3019 RMK A01 T01301054  RH  027%=      5-min Rain = 0
KPD3 122057Z 22006KT 13/M05 A3019 RMK A01 T01321046  RH  029%=      5-min Rain = 0
KPD3 122058Z 22006KT 13/M05 A3019 RMK A01 T01331051  RH  028%=      5-min Rain = 0
KPD3 122059Z 22005KT 13/M06 A3019 RMK A01 T01311060  RH  026%=      5-min Rain = 0
KPD3 122100Z 21003KT 13/M06 A3019 RMK A01 T01281062  RH  026%=      5-min Rain = 0
KPD3 122101Z 22006KT 13/M05 A3019 RMK A01 T01291051  RH  028%=      5-min Rain = 0
KPD3 122102Z 20006KT 13/M05 A3019 RMK A01 T01301046  RH  029%=      5-min Rain = 0
KPD3 122103Z 19006KT 13/M05 A3019 RMK A01 T01311045  RH  029%=      5-min Rain = 0
KPD3 122104Z 19004KT 13/M05 A3019 RMK A01 T01301050  RH  028%=      5-min Rain = 0
KPD3 122105Z 21005KT 13/M05 A3019 RMK A01 T01291049  RH  028%=      5-min Rain = 0
KPD3 122106Z 19003KT 13/M05 A3019 RMK A01 T01301051  RH  028%=      5-min Rain = 0
KPD3 122107Z 20004KT 13/M05 A3019 RMK A01 T01311051  RH  028%=      5-min Rain = 0
KPD3 122108Z 24004KT 13/M05 A3019 RMK A01 T01321054  RH  027%=      5-min Rain = 0
KPD3 122109Z 25003KT 13/M06 A3019 RMK A01 T01311060  RH  026%=      5-min Rain = 0
KPD3 122110Z 27002KT 13/M06 A3019 RMK A01 T01311061  RH  026%=      5-min Rain = 0
KPD3 122111Z 28000KT 13/M06 A3019 RMK A01 T01301064  RH  025%=      5-min Rain = 0
KPD3 122112Z 12000KT 13/M06 A3018 RMK A01 T01311061  RH  026%=      5-min Rain = 0
KPD3 122113Z 18001KT 13/M06 A3018 RMK A01 T01341061  RH  025%=      5-min Rain = 0
KPD3 122114Z 19001KT 14/M06 A3018 RMK A01 T01351063  RH  025%=      5-min Rain = 0
KPD3 122115Z 26003KT 14/M06 A3018 RMK A01 T01361055  RH  026%=      5-min Rain = 0
KPD3 122116Z 25006KT 14/M05 A3018 RMK A01 T01381052  RH  026%=      5-min Rain = 0
KPD3 122117Z 25007KT 14/M06 A3018 RMK A01 T01381055  RH  026%=      5-min Rain = 0
KPD3 122118Z 25004KT 14/M06 A3018 RMK A01 T01361061  RH  025%=      5-min Rain = 0
KPD3 122119Z 26002KT 13/M07 A3018 RMK A01 T01341065  RH  025%=      5-min Rain = 0
KPD3 122120Z 22004KT 13/M06 A3018 RMK A01 T01341061  RH  025%=      5-min Rain = 0
KPD3 122121Z 22005KT 14/M06 A3018 RMK A01 T01351055  RH  026%=      5-min Rain = 0
KPD3 122122Z 23003KT 14/M06 A3019 RMK A01 T01351057  RH  026%=      5-min Rain = 0
KPD3 122123Z 19003KT 14/M06 A3019 RMK A01 T01351059  RH  026%=      5-min Rain = 0
KPD3 122124Z 21004KT 14/M06 A3019 RMK A01 T01351056  RH  026%=      5-min Rain = 0
KPD3 122125Z 23003KT 14/M06 A3019 RMK A01 T01351061  RH  025%=      5-min Rain = 0
KPD3 122126Z 18002KT 13/M06 A3019 RMK A01 T01341060  RH  025%=      5-min Rain = 0
KPD3 122127Z 15001KT 13/M06 A3019 RMK A01 T01341062  RH  025%=      5-min Rain = 0
KPD3 122128Z 24000KT 14/M06 A3019 RMK A01 T01361061  RH  025%=      5-min Rain = 0
KPD3 122129Z 22001KT 14/M06 A3019 RMK A01 T01381062  RH  024%=      5-min Rain = 0
KPD3 122130Z 24004KT 14/M06 A3019 RMK A01 T01381064  RH  024%=      5-min Rain = 0
KPD3 122131Z 24005KT 14/M06 A3019 RMK A01 T01381064  RH  024%=      5-min Rain = 0
KPD3 122132Z 24003KT 14/M07 A3019 RMK A01 T01381065  RH  024%=      5-min Rain = 0
KPD3 122133Z 23002KT 14/M07 A3019 RMK A01 T01361068  RH  024%=      5-min Rain = 0
KPD3 122134Z 22002KT 14/M07 A3019 RMK A01 T01351066  RH  024%=      5-min Rain = 0
KPD3 122135Z 21001KT 14/M07 A3019 RMK A01 T01361067  RH  024%=      5-min Rain = 0
KPD3 122136Z 23001KT 14/M06 A3019 RMK A01 T01371064  RH  024%=      5-min Rain = 0
KPD3 122137Z 24001KT 14/M07 A3019 RMK A01 T01381070  RH  023%=      5-min Rain = 0
KPD3 122138Z 22002KT 14/M07 A3019 RMK A01 T01391072  RH  023%=      5-min Rain = 0
KPD3 122139Z 26003KT 14/M07 A3019 RMK A01 T01391067  RH  023%=      5-min Rain = 0
KPD3 122140Z 25004KT 14/M06 A3019 RMK A01 T01401061  RH  024%=      5-min Rain = 0
KPD3 122141Z 23005KT 14/M06 A3019 RMK A01 T01391058  RH  025%=      5-min Rain = 0
KPD3 122142Z 24005KT 14/M06 A3019 RMK A01 T01381059  RH  025%=      5-min Rain = 0
KPD3 122143Z 22002KT 14/M07 A3019 RMK A01 T01361065  RH  024%=      5-min Rain = 0
KPD3 122144Z 19001KT 14/M07 A3019 RMK A01 T01351067  RH  024%=      5-min Rain = 0
KPD3 122145Z 21002KT 14/M06 A3019 RMK A01 T01351063  RH  025%=      5-min Rain = 0
KPD3 122146Z 19001KT 14/M07 A3019 RMK A01 T01351067  RH  024%=      5-min Rain = 0
KPD3 122147Z 21000KT 14/M07 A3019 RMK A01 T01381065  RH  024%=      5-min Rain = 0
KPD3 122148Z 22001KT 14/M07 A3019 RMK A01 T01421066  RH  023%=      5-min Rain = 0
KPD3 122149Z 24004KT 14/M06 A3019 RMK A01 T01431064  RH  023%=      5-min Rain = 0
KPD3 122150Z 25004KT 14/M06 A3019 RMK A01 T01421063  RH  024%=      5-min Rain = 0
KPD3 122151Z 24003KT 14/M06 A3019 RMK A01 T01391063  RH  024%=      5-min Rain = 0
KPD3 122152Z 22002KT 14/M06 A3019 RMK A01 T01381062  RH  025%=      5-min Rain = 0
KPD3 122153Z 22003KT 14/M07 A3019 RMK A01 T01371065  RH  024%=      5-min Rain = 0
KPD3 122154Z 23003KT 14/M07 A3019 RMK A01 T01361065  RH  024%=      5-min Rain = 0
KPD3 122155Z 21000KT 14/M07 A3019 RMK A01 T01361065  RH  024%=      5-min Rain = 0
KPD3 122156Z 25001KT 14/M06 A3019 RMK A01 T01371060  RH  025%=      5-min Rain = 0
KPD3 122157Z 26001KT 14/M06 A3019 RMK A01 T01401060  RH  024%=      5-min Rain = 0
KPD3 122158Z 23002KT 14/M06 A3019 RMK A01 T01401064  RH  024%=      5-min Rain = 0
KPD3 122159Z 19001KT 14/M07 A3019 RMK A01 T01401067  RH  023%=      5-min Rain = 0
KPD3 122200Z 09000KT 14/M07 A3019 RMK A01 T01391067  RH  023%=      5-min Rain = 0
KPD3 122201Z 10000KT 14/M06 A3019 RMK A01 T01401064  RH  024%=      5-min Rain = 0
KPD3 122202Z 20002KT 14/M06 A3019 RMK A01 T01401062  RH  024%=      5-min Rain = 0
KPD3 122203Z 20003KT 14/M06 A3019 RMK A01 T01391063  RH  024%=      5-min Rain = 0
KPD3 122204Z 22004KT 14/M06 A3019 RMK A01 T01381063  RH  024%=      5-min Rain = 0
KPD3 122205Z 21003KT 14/M06 A3019 RMK A01 T01371063  RH  024%=      5-min Rain = 0
KPD3 122206Z 20003KT 14/M06 A3019 RMK A01 T01361064  RH  024%=      5-min Rain = 0
KPD3 122207Z 20003KT 14/M06 A3019 RMK A01 T01351061  RH  025%=      5-min Rain = 0
KPD3 122208Z 20004KT 14/M06 A3019 RMK A01 T01351061  RH  025%=      5-min Rain = 0
KPD3 122209Z 18003KT 13/M07 A3019 RMK A01 T01341065  RH  025%=      5-min Rain = 0
KPD3 122210Z 17003KT 13/M06 A3019 RMK A01 T01341060  RH  025%=      5-min Rain = 0
KPD3 122211Z 14001KT 13/M07 A3019 RMK A01 T01341065  RH  024%=      5-min Rain = 0
KPD3 122212Z 14001KT 13/M06 A3019 RMK A01 T01341064  RH  025%=      5-min Rain = 0
KPD3 122213Z 17002KT 13/M06 A3019 RMK A01 T01341063  RH  025%=      5-min Rain = 0
KPD3 122214Z 16001KT 14/M06 A3019 RMK A01 T01351064  RH  024%=      5-min Rain = 0
KPD3 122215Z 17002KT 14/M06 A3019 RMK A01 T01351060  RH  025%=      5-min Rain = 0
KPD3 122216Z 17002KT 14/M06 A3019 RMK A01 T01361060  RH  025%=      5-min Rain = 0
KPD3 122217Z 18003KT 14/M06 A3019 RMK A01 T01361061  RH  025%=      5-min Rain = 0
KPD3 122218Z 20003KT 14/M06 A3019 RMK A01 T01361060  RH  025%=      5-min Rain = 0
KPD3 122219Z 20002KT 14/M06 A3019 RMK A01 T01351059  RH  025%=      5-min Rain = 0
KPD3 122220Z 20001KT 14/M06 A3019 RMK A01 T01361064  RH  024%=      5-min Rain = 0
KPD3 122221Z 21001KT 14/M07 A3019 RMK A01 T01371065  RH  024%=      5-min Rain = 0
KPD3 122222Z 20003KT 14/M06 A3019 RMK A01 T01381059  RH  025%=      5-min Rain = 0
KPD3 122223Z 19003KT 14/M05 A3019 RMK A01 T01381054  RH  026%=      5-min Rain = 0
KPD3 122224Z 18003KT 14/M05 A3019 RMK A01 T01371050  RH  027%=      5-min Rain = 0
KPD3 122225Z 19003KT 14/M05 A3019 RMK A01 T01371050  RH  027%=      5-min Rain = 0
KPD3 122226Z 18003KT 14/M05 A3019 RMK A01 T01361049  RH  027%=      5-min Rain = 0
KPD3 122227Z 16002KT 14/M05 A3019 RMK A01 T01351049  RH  027%=      5-min Rain = 0
KPD3 122228Z 28001KT 13/M05 A3019 RMK A01 T01341051  RH  027%=      5-min Rain = 0
KPD3 122229Z 24003KT 14/M05 A3019 RMK A01 T01351054  RH  026%=      5-min Rain = 0
KPD3 122230Z 24003KT 14/M06 A3019 RMK A01 T01361063  RH  025%=      5-min Rain = 0
KPD3 122231Z 23004KT 14/M06 A3019 RMK A01 T01361062  RH  025%=      5-min Rain = 0
KPD3 122232Z 23005KT 14/M06 A3019 RMK A01 T01361057  RH  026%=      5-min Rain = 0
KPD3 122233Z 24005KT 14/M06 A3019 RMK A01 T01351059  RH  025%=      5-min Rain = 0
KPD3 122234Z 24004KT 13/M06 A3019 RMK A01 T01341059  RH  026%=      5-min Rain = 0
KPD3 122235Z 23004KT 13/M06 A3019 RMK A01 T01341057  RH  026%=      5-min Rain = 0
KPD3 122236Z 24004KT 13/M06 A3019 RMK A01 T01341056  RH  026%=      5-min Rain = 0
KPD3 122237Z 23004KT 13/M06 A3019 RMK A01 T01341058  RH  026%=      5-min Rain = 0
KPD3 122238Z 23003KT 13/M06 A3019 RMK A01 T01341062  RH  025%=      5-min Rain = 0
KPD3 122239Z 21003KT 13/M06 A3018 RMK A01 T01341063  RH  025%=      5-min Rain = 0
KPD3 122240Z 17004KT 13/M05 A3018 RMK A01 T01331051  RH  027%=      5-min Rain = 0
KPD3 122241Z 18004KT 13/M04 A3018 RMK A01 T01331040  RH  030%=      5-min Rain = 0
KPD3 122242Z 17004KT 13/M04 A3018 RMK A01 T01321041  RH  030%=      5-min Rain = 0
KPD3 122243Z 15005KT 13/M04 A3018 RMK A01 T01311040  RH  030%=      5-min Rain = 0
KPD3 122244Z 15005KT 13/M04 A3018 RMK A01 T01301038  RH  031%=      5-min Rain = 0
KPD3 122245Z 15005KT 13/M04 A3018 RMK A01 T01301037  RH  031%=      5-min Rain = 0
KPD3 122246Z 14005KT 13/M04 A3018 RMK A01 T01291038  RH  031%=      5-min Rain = 0
KPD3 122247Z 15005KT 13/M04 A3018 RMK A01 T01291038  RH  031%=      5-min Rain = 0
KPD3 122248Z 15005KT 13/M04 A3018 RMK A01 T01281039  RH  031%=      5-min Rain = 0
KPD3 122249Z 17006KT 13/M04 A3018 RMK A01 T01281041  RH  031%=      5-min Rain = 0
KPD3 122250Z 17007KT 13/M04 A3018 RMK A01 T01271041  RH  031%=      5-min Rain = 0
KPD3 122251Z 18007KT 13/M04 A3018 RMK A01 T01271043  RH  030%=      5-min Rain = 0
KPD3 122252Z 18005KT 13/M05 A3018 RMK A01 T01261045  RH  030%=      5-min Rain = 0
KPD3 122253Z 17006KT 13/M04 A3018 RMK A01 T01261043  RH  031%=      5-min Rain = 0
KPD3 122254Z 16006KT 13/M04 A3018 RMK A01 T01261042  RH  031%=      5-min Rain = 0
KPD3 122255Z 16006KT 13/M05 A3018 RMK A01 T01261046  RH  030%=      5-min Rain = 0
KPD3 122256Z 16006KT 13/M04 A3018 RMK A01 T01251043  RH  031%=      5-min Rain = 0
KPD3 122257Z 17007KT 13/M04 A3018 RMK A01 T01251043  RH  031%=      5-min Rain = 0
KPD3 122258Z 17007KT 13/M04 A3018 RMK A01 T01251042  RH  031%=      5-min Rain = 0
KPD3 122259Z 16007KT 12/M04 A3018 RMK A01 T01241042  RH  031%=      5-min Rain = 0
KPD3 122300Z 16007KT 12/M04 A3017 RMK A01 T01241042  RH  031%=      5-min Rain = 0
KPD3 122301Z 16007KT 12/M04 A3017 RMK A01 T01241041  RH  031%=      5-min Rain = 0
KPD3 122302Z 16006KT 12/M04 A3018 RMK A01 T01231040  RH  032%=      5-min Rain = 0
KPD3 122303Z 16005KT 12/M04 A3018 RMK A01 T01221039  RH  032%=      5-min Rain = 0
KPD3 122304Z 16005KT 12/M04 A3018 RMK A01 T01221038  RH  033%=      5-min Rain = 0
KPD3 122305Z 16005KT 12/M04 A3017 RMK A01 T01211038  RH  033%=      5-min Rain = 0
KPD3 122306Z 15006KT 12/M04 A3017 RMK A01 T01211038  RH  033%=      5-min Rain = 0
KPD3 122307Z 16005KT 12/M04 A3017 RMK A01 T01211037  RH  033%=      5-min Rain = 0
KPD3 122308Z 17005KT 12/M04 A3017 RMK A01 T01201037  RH  033%=      5-min Rain = 0
KPD3 122309Z 17006KT 12/M04 A3017 RMK A01 T01191038  RH  033%=      5-min Rain = 0
KPD3 122310Z 16007KT 12/M04 A3017 RMK A01 T01191039  RH  033%=      5-min Rain = 0
KPD3 122311Z 16006KT 12/M04 A3017 RMK A01 T01181038  RH  034%=      5-min Rain = 0
KPD3 122312Z 16006KT 12/M04 A3017 RMK A01 T01171035  RH  034%=      5-min Rain = 0
KPD3 122313Z 16006KT 12/M03 A3017 RMK A01 T01161034  RH  035%=      5-min Rain = 0
KPD3 122314Z 16006KT 12/M03 A3017 RMK A01 T01151033  RH  035%=      5-min Rain = 0
KPD3 122315Z 16007KT 11/M03 A3017 RMK A01 T01141033  RH  036%=      5-min Rain = 0
KPD3 122316Z 16007KT 11/M03 A3017 RMK A01 T01141033  RH  036%=      5-min Rain = 0
KPD3 122317Z 15007KT 11/M03 A3017 RMK A01 T01131033  RH  036%=      5-min Rain = 0
KPD3 122318Z 15007KT 11/M03 A3017 RMK A01 T01121031  RH  037%=      5-min Rain = 0
KPD3 122319Z 15007KT 11/M03 A3017 RMK A01 T01101031  RH  037%=      5-min Rain = 0
KPD3 122320Z 15007KT 11/M03 A3017 RMK A01 T01091030  RH  037%=      5-min Rain = 0
KPD3 122321Z 15006KT 11/M03 A3017 RMK A01 T01081029  RH  038%=      5-min Rain = 0
KPD3 122322Z 16006KT 11/M03 A3017 RMK A01 T01071029  RH  039%=      5-min Rain = 0
KPD3 122323Z 15006KT 11/M03 A3018 RMK A01 T01061028  RH  039%=      5-min Rain = 0
KPD3 122324Z 15006KT 10/M03 A3018 RMK A01 T01041029  RH  039%=      5-min Rain = 0
KPD3 122325Z 15005KT 10/M03 A3018 RMK A01 T01031028  RH  040%=      5-min Rain = 0
KPD3 122326Z 15005KT 10/M03 A3018 RMK A01 T01021029  RH  040%=      5-min Rain = 0
KPD3 122327Z 15006KT 10/M03 A3018 RMK A01 T01011029  RH  040%=      5-min Rain = 0
KPD3 122328Z 15006KT 10/M03 A3018 RMK A01 T01001029  RH  040%=      5-min Rain = 0
KPD3 122329Z 15006KT 10/M03 A3018 RMK A01 T00991029  RH  040%=      5-min Rain = 0
KPD3 122330Z 15006KT 10/M03 A3018 RMK A01 T00981029  RH  041%=      5-min Rain = 0
KPD3 122331Z 15005KT 10/M03 A3018 RMK A01 T00961030  RH  041%=      5-min Rain = 0
KPD3 122332Z 15005KT 10/M03 A3018 RMK A01 T00951030  RH  041%=      5-min Rain = 0
KPD3 122333Z 14006KT 09/M03 A3018 RMK A01 T00941030  RH  042%=      5-min Rain = 0
KPD3 122334Z 14006KT 09/M03 A3018 RMK A01 T00921031  RH  042%=      5-min Rain = 0
KPD3 122335Z 15007KT 09/M03 A3018 RMK A01 T00901031  RH  042%=      5-min Rain = 0
KPD3 122336Z 15007KT 09/M03 A3018 RMK A01 T00881032  RH  043%=      5-min Rain = 0
KPD3 122337Z 15007KT 09/M03 A3018 RMK A01 T00861032  RH  043%=      5-min Rain = 0
KPD3 122338Z 15007KT 08/M03 A3018 RMK A01 T00831033  RH  044%=      5-min Rain = 0
KPD3 122339Z 15007KT 08/M03 A3018 RMK A01 T00811033  RH  045%=      5-min Rain = 0
KPD3 122340Z 15007KT 08/M03 A3018 RMK A01 T00801032  RH  045%=      5-min Rain = 0
KPD3 122341Z 15006KT 08/M03 A3018 RMK A01 T00801032  RH  045%=      5-min Rain = 0
KPD3 122342Z 15006KT 08/M03 A3018 RMK A01 T00801031  RH  045%=      5-min Rain = 0
KPD3 122343Z 15006KT 08/M03 A3018 RMK A01 T00791032  RH  045%=      5-min Rain = 0
KPD3 122344Z 15006KT 08/M03 A3018 RMK A01 T00791032  RH  046%=      5-min Rain = 0
KPD3 122345Z 15007KT 08/M03 A3017 RMK A01 T00781032  RH  046%=      5-min Rain = 0
KPD3 122346Z 15007KT 08/M03 A3017 RMK A01 T00761032  RH  046%=      5-min Rain = 0
KPD3 122347Z 15007KT 08/M03 A3017 RMK A01 T00751033  RH  046%=      5-min Rain = 0
KPD3 122348Z 15007KT 07/M03 A3017 RMK A01 T00731033  RH  047%=      5-min Rain = 0
KPD3 122349Z 15007KT 07/M03 A3017 RMK A01 T00711034  RH  047%=      5-min Rain = 0
KPD3 122350Z 15007KT 07/M04 A3017 RMK A01 T00681035  RH  048%=      5-min Rain = 0
KPD3 122351Z 15007KT 07/M04 A3017 RMK A01 T00661035  RH  049%=      5-min Rain = 0
KPD3 122352Z 15007KT 06/M03 A3018 RMK A01 T00631034  RH  050%=      5-min Rain = 0
KPD3 122353Z 15007KT 06/M03 A3018 RMK A01 T00611034  RH  050%=      5-min Rain = 0
KPD3 122354Z 15007KT 06/M04 A3018 RMK A01 T00591035  RH  051%=      5-min Rain = 0
KPD3 122355Z 15006KT 06/M04 A3018 RMK A01 T00581036  RH  051%=      5-min Rain = 0
KPD3 122356Z 15006KT 06/M04 A3018 RMK A01 T00571036  RH  051%=      5-min Rain = 0
KPD3 122357Z 15007KT 06/M04 A3018 RMK A01 T00561036  RH  052%=      5-min Rain = 0
KPD3 122358Z 15007KT 06/M04 A3018 RMK A01 T00551036  RH  052%=      5-min Rain = 0
KPD3 122359Z 15006KT 05/M04 A3018 RMK A01 T00541036  RH  052%=      5-min Rain = 0
KPD3 130000Z 15006KT 05/M04 A3018 RMK A01 T00541036  RH  052%=      5-min Rain = 0
KPD3 130001Z 15006KT 05/M04 A3018 RMK A01 T00541036  RH  052%=      5-min Rain = 0
KPD3 130002Z 15006KT 05/M04 A3018 RMK A01 T00531036  RH  052%=      5-min Rain = 0
KPD3 130003Z 15006KT 05/M04 A3018 RMK A01 T00531036  RH  052%=      5-min Rain = 0
KPD3 130004Z 15006KT 05/M04 A3018 RMK A01 T00521036  RH  053%=      5-min Rain = 0
KPD3 130005Z 15006KT 05/M04 A3018 RMK A01 T00511035  RH  054%=      5-min Rain = 0
KPD3 130006Z 15006KT 05/M04 A3018 RMK A01 T00501035  RH  054%=      5-min Rain = 0
KPD3 130007Z 15006KT 05/M04 A3018 RMK A01 T00501036  RH  054%=      5-min Rain = 0
KPD3 130008Z 15006KT 05/M04 A3018 RMK A01 T00501035  RH  054%=      5-min Rain = 0
KPD3 130009Z 15006KT 05/M04 A3018 RMK A01 T00491035  RH  054%=      5-min Rain = 0
KPD3 130010Z 15006KT 05/M04 A3018 RMK A01 T00501035  RH  054%=      5-min Rain = 0
KPD3 130011Z 15006KT 05/M04 A3018 RMK A01 T00501035  RH  054%=      5-min Rain = 0
KPD3 130012Z 15006KT 05/M04 A3018 RMK A01 T00501036  RH  054%=      5-min Rain = 0
KPD3 130013Z 16005KT 05/M04 A3018 RMK A01 T00481036  RH  054%=      5-min Rain = 0
KPD3 130014Z 16005KT 05/M04 A3018 RMK A01 T00481036  RH  055%=      5-min Rain = 0
KPD3 130015Z 16005KT 05/M04 A3018 RMK A01 T00471036  RH  055%=      5-min Rain = 0
KPD3 130016Z 15005KT 05/M04 A3018 RMK A01 T00471036  RH  055%=      5-min Rain = 0
KPD3 130017Z 16005KT 05/M04 A3018 RMK A01 T00461037  RH  055%=      5-min Rain = 0
KPD3 130018Z 16005KT 05/M04 A3018 RMK A01 T00461037  RH  055%=      5-min Rain = 0
KPD3 130019Z 16005KT 05/M04 A3018 RMK A01 T00451036  RH  055%=      5-min Rain = 0
KPD3 130020Z 16005KT 05/M04 A3018 RMK A01 T00451036  RH  056%=      5-min Rain = 0
KPD3 130021Z 16004KT 05/M04 A3018 RMK A01 T00451036  RH  056%=      5-min Rain = 0
KPD3 130022Z 17004KT 05/M04 A3018 RMK A01 T00451036  RH  055%=      5-min Rain = 0
KPD3 130023Z 17004KT 05/M04 A3018 RMK A01 T00461036  RH  055%=      5-min Rain = 0
KPD3 130024Z 17004KT 05/M04 A3018 RMK A01 T00451037  RH  055%=      5-min Rain = 0
KPD3 130025Z 17004KT 04/M04 A3018 RMK A01 T00441037  RH  056%=      5-min Rain = 0
KPD3 130026Z 17004KT 05/M04 A3019 RMK A01 T00451036  RH  056%=      5-min Rain = 0
KPD3 130027Z 17004KT 05/M04 A3019 RMK A01 T00451036  RH  056%=      5-min Rain = 0
KPD3 130028Z 17004KT 05/M04 A3019 RMK A01 T00451036  RH  056%=      5-min Rain = 0
KPD3 130029Z 17004KT 05/M04 A3019 RMK A01 T00461036  RH  055%=      5-min Rain = 0
KPD3 130030Z 17004KT 05/M04 A3019 RMK A01 T00451036  RH  055%=      5-min Rain = 0
KPD3 130031Z 17004KT 05/M04 A3018 RMK A01 T00451036  RH  055%=      5-min Rain = 0
KPD3 130032Z 17005KT 05/M04 A3018 RMK A01 T00461035  RH  055%=      5-min Rain = 0
KPD3 130033Z 17005KT 05/M04 A3018 RMK A01 T00471035  RH  055%=      5-min Rain = 0
KPD3 130034Z 17004KT 05/M04 A3018 RMK A01 T00471036  RH  055%=      5-min Rain = 0
KPD3 130035Z 17004KT 05/M04 A3018 RMK A01 T00461036  RH  055%=      5-min Rain = 0
KPD3 130036Z 17004KT 04/M04 A3018 RMK A01 T00441036  RH  056%=      5-min Rain = 0
KPD3 130037Z 17004KT 04/M04 A3018 RMK A01 T00381041  RH  056%=      5-min Rain = 0
KPD3 130038Z 18004KT 03/M04 A3019 RMK A01 T00321041  RH  059%=      5-min Rain = 0
KPD3 130039Z 18004KT 03/M04 A3019 RMK A01 T00271041  RH  061%=      5-min Rain = 0
KPD3 130040Z 18004KT 03/M04 A3019 RMK A01 T00251039  RH  063%=      5-min Rain = 0
KPD3 130041Z 18004KT 02/M04 A3019 RMK A01 T00241036  RH  064%=      5-min Rain = 0
KPD3 130042Z 18003KT 03/M04 A3018 RMK A01 T00251036  RH  064%=      5-min Rain = 0
KPD3 130043Z 19003KT 03/M04 A3018 RMK A01 T00261035  RH  064%=      5-min Rain = 0
KPD3 130044Z 19004KT 03/M03 A3018 RMK A01 T00271034  RH  064%=      5-min Rain = 0
KPD3 130045Z 19004KT 03/M04 A3018 RMK A01 T00281035  RH  063%=      5-min Rain = 0
KPD3 130046Z 19004KT 03/M04 A3018 RMK A01 T00271037  RH  063%=      5-min Rain = 0
KPD3 130047Z 19004KT 03/M04 A3018 RMK A01 T00251039  RH  063%=      5-min Rain = 0
KPD3 130048Z 19004KT 02/M04 A3018 RMK A01 T00221040  RH  063%=      5-min Rain = 0
KPD3 130049Z 20004KT 02/M04 A3018 RMK A01 T00201041  RH  064%=      5-min Rain = 0
KPD3 130050Z 20004KT 02/M04 A3018 RMK A01 T00191039  RH  065%=      5-min Rain = 0
KPD3 130051Z 20005KT 02/M04 A3018 RMK A01 T00191039  RH  066%=      5-min Rain = 0
KPD3 130052Z 20004KT 02/M04 A3018 RMK A01 T00191039  RH  066%=      5-min Rain = 0
KPD3 130053Z 21004KT 02/M04 A3018 RMK A01 T00171040  RH  066%=      5-min Rain = 0
KPD3 130054Z 21004KT 02/M04 A3018 RMK A01 T00151041  RH  066%=      5-min Rain = 0
KPD3 130055Z 22004KT 01/M04 A3018 RMK A01 T00141041  RH  067%=      5-min Rain = 0
KPD3 130056Z 22004KT 01/M04 A3018 RMK A01 T00121041  RH  068%=      5-min Rain = 0
KPD3 130057Z 22004KT 01/M04 A3018 RMK A01 T00111041  RH  068%=      5-min Rain = 0
KPD3 130058Z 23005KT 01/M04 A3019 RMK A01 T00091042  RH  069%=      5-min Rain = 0
KPD3 130059Z 23006KT 01/M04 A3019 RMK A01 T00071042  RH  069%=      5-min Rain = 0
KPD3 130100Z 22006KT 01/M04 A3019 RMK A01 T00051043  RH  070%=      5-min Rain = 0
KPD3 130101Z 22007KT 00/M04 A3019 RMK A01 T00041043  RH  071%=      5-min Rain = 0
KPD3 130102Z 22006KT 00/M04 A3019 RMK A01 T00031042  RH  071%=      5-min Rain = 0
KPD3 130103Z 22005KT 00/M04 A3019 RMK A01 T00031042  RH  072%=      5-min Rain = 0
KPD3 130104Z 22005KT 00/M04 A3019 RMK A01 T00031042  RH  072%=      5-min Rain = 0
KPD3 130105Z 23006KT 00/M04 A3019 RMK A01 T00031043  RH  071%=      5-min Rain = 0
KPD3 130106Z 23006KT 00/M04 A3019 RMK A01 T00031043  RH  071%=      5-min Rain = 0
KPD3 130107Z 24006KT 00/M04 A3019 RMK A01 T00031043  RH  072%=      5-min Rain = 0
KPD3 130108Z 23005KT 00/M04 A3019 RMK A01 T00031042  RH  072%=      5-min Rain = 0
KPD3 130109Z 23005KT 00/M04 A3019 RMK A01 T00041041  RH  072%=      5-min Rain = 0
KPD3 130110Z 23005KT 01/M04 A3019 RMK A01 T00051041  RH  072%=      5-min Rain = 0
KPD3 130111Z 23006KT 01/M04 A3019 RMK A01 T00051041  RH  071%=      5-min Rain = 0
KPD3 130112Z 23006KT 01/M04 A3019 RMK A01 T00051042  RH  071%=      5-min Rain = 0
KPD3 130113Z 23006KT 00/M04 A3019 RMK A01 T00031042  RH  072%=      5-min Rain = 0
KPD3 130114Z 23006KT 00/M04 A3019 RMK A01 T00021042  RH  072%=      5-min Rain = 0
KPD3 130115Z 23006KT 00/04 A3019 RMK A01 T00000-44  RH  072%=      5-min Rain = 0
KPD3 130116Z 22005KT M00/M04 A3019 RMK A01 T10021044  RH  073%=      5-min Rain = 0
KPD3 130117Z 22005KT M00/M04 A3019 RMK A01 T10021043  RH  074%=      5-min Rain = 0
KPD3 130118Z 22005KT M00/M04 A3019 RMK A01 T10021043  RH  074%=      5-min Rain = 0
KPD3 130119Z 23005KT M00/M04 A3019 RMK A01 T10031042  RH  075%=      5-min Rain = 0
KPD3 130120Z 23005KT M00/M04 A3019 RMK A01 T10031042  RH  075%=      5-min Rain = 0
KPD3 130121Z 24005KT M00/M04 A3019 RMK A01 T10031041  RH  075%=      5-min Rain = 0
KPD3 130122Z 24005KT M00/M04 A3019 RMK A01 T10041042  RH  075%=      5-min Rain = 0
KPD3 130123Z 24005KT M00/M04 A3019 RMK A01 T10041042  RH  076%=      5-min Rain = 0
KPD3 130124Z 24006KT M01/M04 A3019 RMK A01 T10061043  RH  076%=      5-min Rain = 0
KPD3 130125Z 24006KT M01/M04 A3019 RMK A01 T10071043  RH  076%=      5-min Rain = 0
KPD3 130126Z 24007KT M01/M04 A3019 RMK A01 T10081043  RH  077%=      5-min Rain = 0
KPD3 130127Z 25008KT M01/M04 A3019 RMK A01 T10091043  RH  078%=      5-min Rain = 0
KPD3 130128Z 25007KT M01/M04 A3019 RMK A01 T10101043  RH  078%=      5-min Rain = 0
KPD3 130129Z 25007KT M01/M04 A3019 RMK A01 T10101043  RH  078%=      5-min Rain = 0
KPD3 130130Z 26007KT M01/M04 A3019 RMK A01 T10101043  RH  078%=      5-min Rain = 0
KPD3 130131Z 26007KT M01/M04 A3019 RMK A01 T10101043  RH  078%=      5-min Rain = 0
KPD3 130132Z 26007KT M01/M04 A3019 RMK A01 T10101043  RH  078%=      5-min Rain = 0
KPD3 130133Z 26006KT M01/M04 A302 RMK A01 T10101042  RH  079%=      5-min Rain = 0
KPD3 130134Z 26006KT M01/M04 A302 RMK A01 T10091040  RH  079%=      5-min Rain = 0
KPD3 130135Z 26006KT M01/M04 A302 RMK A01 T10081039  RH  079%=      5-min Rain = 0
KPD3 130136Z 26006KT M01/M04 A302 RMK A01 T10071039  RH  079%=      5-min Rain = 0
KPD3 130137Z 26007KT M01/M04 A3019 RMK A01 T10051038  RH  079%=      5-min Rain = 0
KPD3 130138Z 25006KT M00/M04 A3019 RMK A01 T10031037  RH  078%=      5-min Rain = 0
KPD3 130139Z 25007KT M00/M04 A3019 RMK A01 T10021037  RH  077%=      5-min Rain = 0
KPD3 130140Z 25007KT M00/M04 A3019 RMK A01 T10021038  RH  076%=      5-min Rain = 0
KPD3 130141Z 25007KT M01/M04 A3019 RMK A01 T10051043  RH  075%=      5-min Rain = 0
KPD3 130142Z 25007KT M01/M05 A3019 RMK A01 T10101048  RH  075%=      5-min Rain = 0
KPD3 130143Z 26006KT M01/M05 A3019 RMK A01 T10131049  RH  076%=      5-min Rain = 0
KPD3 130144Z 26007KT M01/M05 A3019 RMK A01 T10141049  RH  077%=      5-min Rain = 0
KPD3 130145Z 26008KT M01/M05 A3019 RMK A01 T10141047  RH  078%=      5-min Rain = 0
KPD3 130146Z 26007KT M01/M05 A3019 RMK A01 T10121045  RH  079%=      5-min Rain = 0
KPD3 130147Z 26007KT M01/M04 A3019 RMK A01 T10111044  RH  078%=      5-min Rain = 0
KPD3 130148Z 26007KT M01/M05 A3019 RMK A01 T10111045  RH  078%=      5-min Rain = 0
KPD3 130149Z 25008KT M01/M05 A3019 RMK A01 T10111045  RH  078%=      5-min Rain = 0
KPD3 130150Z 26009KT M01/M04 A3018 RMK A01 T10101043  RH  078%=      5-min Rain = 0
KPD3 130151Z 25009KT M01/M04 A3018 RMK A01 T10091042  RH  078%=      5-min Rain = 0
KPD3 130152Z 25008KT M01/M04 A3018 RMK A01 T10091042  RH  078%=      5-min Rain = 0
KPD3 130153Z 25008KT M01/M04 A3018 RMK A01 T10091042  RH  078%=      5-min Rain = 0
KPD3 130154Z 26008KT M01/M04 A3018 RMK A01 T10091043  RH  078%=      5-min Rain = 0
KPD3 130155Z 26008KT M01/M04 A3018 RMK A01 T10111043  RH  079%=      5-min Rain = 0
KPD3 130156Z 25008KT M01/M04 A3018 RMK A01 T10111042  RH  079%=      5-min Rain = 0
KPD3 130157Z 25008KT M01/M04 A3018 RMK A01 T10111042  RH  079%=      5-min Rain = 0
KPD3 130158Z 25008KT M01/M04 A3018 RMK A01 T10111042  RH  079%=      5-min Rain = 0
KPD3 130159Z 25008KT M01/M04 A3018 RMK A01 T10101041  RH  079%=      5-min Rain = 0
KPD3 130200Z 25008KT M01/M04 A3018 RMK A01 T10091041  RH  079%=      5-min Rain = 0
KPD3 130201Z 25008KT M01/M04 A3018 RMK A01 T10081040  RH  079%=      5-min Rain = 0
KPD3 130202Z 25009KT M01/M04 A3018 RMK A01 T10081040  RH  079%=      5-min Rain = 0
KPD3 130203Z 25009KT M01/M04 A3018 RMK A01 T10071040  RH  079%=      5-min Rain = 0
KPD3 130204Z 25008KT M01/M04 A3018 RMK A01 T10071040  RH  079%=      5-min Rain = 0
KPD3 130205Z 25008KT M01/M04 A3018 RMK A01 T10071040  RH  079%=      5-min Rain = 0
KPD3 130206Z 25008KT M01/M04 A3018 RMK A01 T10071039  RH  079%=      5-min Rain = 0
KPD3 130207Z 25008KT M01/M04 A3018 RMK A01 T10061038  RH  079%=      5-min Rain = 0
KPD3 130208Z 25008KT M01/M04 A3018 RMK A01 T10061039  RH  079%=      5-min Rain = 0
KPD3 130209Z 25008KT M01/M04 A3018 RMK A01 T10061039  RH  078%=      5-min Rain = 0
KPD3 130210Z 25008KT M01/M04 A3018 RMK A01 T10061039  RH  078%=      5-min Rain = 0
KPD3 130211Z 25008KT M01/M04 A3018 RMK A01 T10061039  RH  078%=      5-min Rain = 0
KPD3 130212Z 25008KT M01/M04 A3018 RMK A01 T10061039  RH  078%=      5-min Rain = 0
KPD3 130213Z 25008KT M01/M04 A3018 RMK A01 T10071040  RH  078%=      5-min Rain = 0
KPD3 130214Z 25008KT M01/M04 A3018 RMK A01 T10081041  RH  078%=      5-min Rain = 0
KPD3 130215Z 25008KT M01/M04 A3018 RMK A01 T10091041  RH  079%=      5-min Rain = 0
KPD3 130216Z 25007KT M01/M04 A3018 RMK A01 T10101041  RH  079%=      5-min Rain = 0
KPD3 130217Z 25007KT M01/M04 A3018 RMK A01 T10101041  RH  079%=      5-min Rain = 0
KPD3 130218Z 25007KT M01/M04 A3018 RMK A01 T10101041  RH  079%=      5-min Rain = 0
KPD3 130219Z 25008KT M01/M04 A3018 RMK A01 T10081040  RH  079%=      5-min Rain = 0
KPD3 130220Z 25008KT M01/M04 A3018 RMK A01 T10071040  RH  079%=      5-min Rain = 0
KPD3 130221Z 26008KT M01/M04 A3018 RMK A01 T10071040  RH  078%=      5-min Rain = 0
KPD3 130222Z 26008KT M01/M04 A3018 RMK A01 T10081042  RH  078%=      5-min Rain = 0
KPD3 130223Z 26008KT M01/M04 A3018 RMK A01 T10101043  RH  078%=      5-min Rain = 0
KPD3 130224Z 25007KT M01/M05 A3018 RMK A01 T10121045  RH  079%=      5-min Rain = 0
KPD3 130225Z 25007KT M01/M05 A3018 RMK A01 T10141045  RH  079%=      5-min Rain = 0
KPD3 130226Z 25007KT M02/M05 A3018 RMK A01 T10151046  RH  080%=      5-min Rain = 0
KPD3 130227Z 25007KT M02/M05 A3018 RMK A01 T10171046  RH  080%=      5-min Rain = 0
KPD3 130228Z 24007KT M02/M05 A3018 RMK A01 T10171046  RH  081%=      5-min Rain = 0
KPD3 130229Z 24007KT M02/M05 A3018 RMK A01 T10181047  RH  081%=      5-min Rain = 0
KPD3 130230Z 24007KT M02/M05 A3018 RMK A01 T10191048  RH  081%=      5-min Rain = 0
KPD3 130231Z 24007KT M02/M05 A3018 RMK A01 T10181046  RH  081%=      5-min Rain = 0
KPD3 130232Z 24007KT M02/M04 A3018 RMK A01 T10171044  RH  081%=      5-min Rain = 0
KPD3 130233Z 24007KT M02/M04 A3018 RMK A01 T10151043  RH  081%=      5-min Rain = 0
KPD3 130234Z 24008KT M01/M04 A3018 RMK A01 T10121041  RH  081%=      5-min Rain = 0
KPD3 130235Z 25008KT M01/M04 A3018 RMK A01 T10101040  RH  080%=      5-min Rain = 0
KPD3 130236Z 24008KT M01/M04 A3018 RMK A01 T10091040  RH  079%=      5-min Rain = 0
KPD3 130237Z 24008KT M01/M04 A3018 RMK A01 T10071039  RH  079%=      5-min Rain = 0
KPD3 130238Z 24008KT M01/M04 A3018 RMK A01 T10071040  RH  078%=      5-min Rain = 0
KPD3 130239Z 24008KT M01/M04 A3018 RMK A01 T10081041  RH  078%=      5-min Rain = 0
KPD3 130240Z 24008KT M01/M04 A3018 RMK A01 T10091041  RH  078%=      5-min Rain = 0
KPD3 130241Z 24008KT M01/M04 A3018 RMK A01 T10081040  RH  079%=      5-min Rain = 0
KPD3 130242Z 24009KT M01/M04 A3018 RMK A01 T10071039  RH  079%=      5-min Rain = 0
KPD3 130243Z 24009KT M01/M04 A3018 RMK A01 T10061039  RH  078%=      5-min Rain = 0
KPD3 130244Z 24008KT M01/M04 A3018 RMK A01 T10061039  RH  078%=      5-min Rain = 0
KPD3 130245Z 24008KT M01/M04 A3018 RMK A01 T10071041  RH  078%=      5-min Rain = 0
KPD3 130246Z 24008KT M01/M04 A3018 RMK A01 T10081042  RH  078%=      5-min Rain = 0
KPD3 130247Z 25008KT M01/M04 A3018 RMK A01 T10091043  RH  078%=      5-min Rain = 0
KPD3 130248Z 25007KT M01/M04 A3018 RMK A01 T10101042  RH  079%=      5-min Rain = 0
KPD3 130249Z 25007KT M01/M04 A3018 RMK A01 T10101042  RH  079%=      5-min Rain = 0
KPD3 130250Z 25007KT M01/M04 A3018 RMK A01 T10101041  RH  079%=      5-min Rain = 0
KPD3 130251Z 25007KT M01/M04 A3018 RMK A01 T10101041  RH  079%=      5-min Rain = 0
KPD3 130252Z 25007KT M01/M04 A3018 RMK A01 T10101042  RH  079%=      5-min Rain = 0
KPD3 130253Z 25007KT M01/M04 A3018 RMK A01 T10101041  RH  079%=      5-min Rain = 0
KPD3 130254Z 25007KT M01/M04 A3018 RMK A01 T10091041  RH  079%=      5-min Rain = 0
KPD3 130255Z 25008KT M01/M04 A3018 RMK A01 T10091041  RH  079%=      5-min Rain = 0
KPD3 130256Z 25008KT M01/M04 A3018 RMK A01 T10091041  RH  079%=      5-min Rain = 0
KPD3 130257Z 25008KT M01/M04 A3018 RMK A01 T10091040  RH  079%=      5-min Rain = 0
KPD3 130258Z 25009KT M01/M04 A3018 RMK A01 T10091040  RH  080%=      5-min Rain = 0
KPD3 130259Z 25009KT M01/M04 A3018 RMK A01 T10081038  RH  080%=      5-min Rain = 0
KPD3 130300Z 25009KT M01/M04 A3018 RMK A01 T10061037  RH  080%=      5-min Rain = 0
KPD3 130301Z 25009KT M01/M04 A3018 RMK A01 T10051036  RH  079%=      5-min Rain = 0
KPD3 130302Z 25010KT M00/M04 A3018 RMK A01 T10041036  RH  079%=      5-min Rain = 0
KPD3 130303Z 25009KT M00/M04 A3018 RMK A01 T10031036  RH  078%=      5-min Rain = 0
KPD3 130304Z 25009KT M00/M04 A3018 RMK A01 T10041037  RH  078%=      5-min Rain = 0
KPD3 130305Z 25009KT M00/M04 A3018 RMK A01 T10041038  RH  078%=      5-min Rain = 0
KPD3 130306Z 25009KT M01/M04 A3018 RMK A01 T10051038  RH  078%=      5-min Rain = 0
KPD3 130307Z 25009KT M01/M04 A3018 RMK A01 T10051039  RH  078%=      5-min Rain = 0
KPD3 130308Z 25009KT M01/M04 A3018 RMK A01 T10061039  RH  078%=      5-min Rain = 0
KPD3 130309Z 25009KT M01/M04 A3018 RMK A01 T10061040  RH  078%=      5-min Rain = 0
KPD3 130310Z 25009KT M01/M04 A3018 RMK A01 T10081041  RH  078%=      5-min Rain = 0
KPD3 130311Z 25009KT M01/M04 A3018 RMK A01 T10091042  RH  078%=      5-min Rain = 0
KPD3 130312Z 26008KT M01/M04 A3018 RMK A01 T10101043  RH  078%=      5-min Rain = 0
KPD3 130313Z 26008KT M01/M04 A3018 RMK A01 T10111044  RH  079%=      5-min Rain = 0
KPD3 130314Z 26008KT M01/M04 A3018 RMK A01 T10131044  RH  079%=      5-min Rain = 0
KPD3 130315Z 26008KT M01/M05 A3018 RMK A01 T10141045  RH  079%=      5-min Rain = 0
KPD3 130316Z 27008KT M02/M05 A3018 RMK A01 T10151045  RH  080%=      5-min Rain = 0
KPD3 130317Z 26008KT M02/M05 A3018 RMK A01 T10161045  RH  081%=      5-min Rain = 0
KPD3 130318Z 26008KT M02/M05 A3018 RMK A01 T10171045  RH  081%=      5-min Rain = 0
KPD3 130319Z 26008KT M02/M05 A3017 RMK A01 T10181045  RH  081%=      5-min Rain = 0
KPD3 130320Z 26008KT M02/M05 A3017 RMK A01 T10181046  RH  082%=      5-min Rain = 0
KPD3 130321Z 26008KT M02/M05 A3017 RMK A01 T10191045  RH  082%=      5-min Rain = 0
KPD3 130322Z 26007KT M02/M05 A3017 RMK A01 T10191045  RH  082%=      5-min Rain = 0
KPD3 130323Z 26006KT M02/M05 A3017 RMK A01 T10201046  RH  082%=      5-min Rain = 0
KPD3 130324Z 26007KT M02/M05 A3017 RMK A01 T10231051  RH  081%=      5-min Rain = 0
KPD3 130325Z 26006KT M03/M05 A3017 RMK A01 T10261053  RH  082%=      5-min Rain = 0
KPD3 130326Z 26007KT M03/M05 A3017 RMK A01 T10291054  RH  083%=      5-min Rain = 0
KPD3 130327Z 26008KT M03/M05 A3017 RMK A01 T10281050  RH  085%=      5-min Rain = 0
KPD3 130328Z 26008KT M03/M05 A3017 RMK A01 T10271046  RH  087%=      5-min Rain = 0
KPD3 130329Z 26008KT M03/M05 A3017 RMK A01 T10261045  RH  087%=      5-min Rain = 0
KPD3 130330Z 26008KT M02/M04 A3017 RMK A01 T10231041  RH  087%=      5-min Rain = 0
KPD3 130331Z 26008KT M02/M04 A3017 RMK A01 T10211040  RH  087%=      5-min Rain = 0
KPD3 130332Z 26008KT M02/M04 A3017 RMK A01 T10201040  RH  086%=      5-min Rain = 0
KPD3 130333Z 26008KT M02/M04 A3017 RMK A01 T10191040  RH  085%=      5-min Rain = 0
KPD3 130334Z 25009KT M02/M04 A3017 RMK A01 T10181043  RH  084%=      5-min Rain = 0
KPD3 130335Z 25008KT M02/M05 A3017 RMK A01 T10191045  RH  083%=      5-min Rain = 0
KPD3 130336Z 25008KT M02/M04 A3017 RMK A01 T10171040  RH  084%=      5-min Rain = 0
KPD3 130337Z 25008KT M01/M04 A3017 RMK A01 T10131035  RH  085%=      5-min Rain = 0
KPD3 130338Z 25009KT M01/M03 A3017 RMK A01 T10091032  RH  084%=      5-min Rain = 0
KPD3 130339Z 25009KT M01/M03 A3017 RMK A01 T10061031  RH  083%=      5-min Rain = 0
KPD3 130340Z 25009KT M00/M03 A3017 RMK A01 T10031030  RH  082%=      5-min Rain = 0
KPD3 130341Z 25009KT M00/M03 A3017 RMK A01 T10011029  RH  082%=      5-min Rain = 0
KPD3 130342Z 25009KT 00/M03 A3017 RMK A01 T00011028  RH  081%=      5-min Rain = 0
KPD3 130343Z 25008KT 00/M03 A3017 RMK A01 T00021028  RH  080%=      5-min Rain = 0
KPD3 130344Z 25008KT 00/M03 A3017 RMK A01 T00031027  RH  080%=      5-min Rain = 0
KPD3 130345Z 25007KT 00/M03 A3017 RMK A01 T00041027  RH  080%=      5-min Rain = 0
KPD3 130346Z 25007KT 00/M03 A3017 RMK A01 T00041027  RH  079%=      5-min Rain = 0
KPD3 130347Z 25006KT 00/M03 A3017 RMK A01 T00041027  RH  079%=      5-min Rain = 0
KPD3 130348Z 25007KT 01/M03 A3017 RMK A01 T00051026  RH  080%=      5-min Rain = 0
KPD3 130349Z 25007KT 01/M02 A3017 RMK A01 T00081024  RH  079%=      5-min Rain = 0
KPD3 130350Z 26006KT 01/M03 A3017 RMK A01 T00101025  RH  077%=      5-min Rain = 0
KPD3 130351Z 26006KT 01/M03 A3017 RMK A01 T00111027  RH  076%=      5-min Rain = 0
KPD3 130352Z 26005KT 01/M03 A3017 RMK A01 T00081031  RH  075%=      5-min Rain = 0
KPD3 130353Z 27005KT 01/M03 A3017 RMK A01 T00071031  RH  076%=      5-min Rain = 0
KPD3 130354Z 27004KT 00/M04 A3017 RMK A01 T00041035  RH  075%=      5-min Rain = 0
KPD3 130355Z 27003KT 00/M04 A3017 RMK A01 T00011037  RH  076%=      5-min Rain = 0
KPD3 130356Z 29003KT M00/M04 A3017 RMK A01 T10021038  RH  077%=      5-min Rain = 0
KPD3 130357Z 31003KT M00/M04 A3017 RMK A01 T10041038  RH  078%=      5-min Rain = 0
KPD3 130358Z 30004KT M00/M04 A3017 RMK A01 T10041036  RH  079%=      5-min Rain = 0
KPD3 130359Z 30004KT M01/M04 A3017 RMK A01 T10051037  RH  079%=      5-min Rain = 0
KPD3 130400Z 31005KT M01/M04 A3017 RMK A01 T10061037  RH  079%=      5-min Rain = 0
KPD3 130401Z 31005KT M01/M04 A3017 RMK A01 T10061037  RH  080%=      5-min Rain = 0
KPD3 130402Z 32003KT M01/M04 A3017 RMK A01 T10071037  RH  080%=      5-min Rain = 0
KPD3 130403Z 31003KT M01/M04 A3017 RMK A01 T10081038  RH  080%=      5-min Rain = 0
KPD3 130404Z 31003KT M01/M04 A3017 RMK A01 T10081036  RH  081%=      5-min Rain = 0
KPD3 130405Z 32003KT M01/M04 A3017 RMK A01 T10071035  RH  082%=      5-min Rain = 0
KPD3 130406Z 31004KT M01/M03 A3017 RMK A01 T10071033  RH  082%=      5-min Rain = 0
KPD3 130407Z 30004KT M01/M03 A3017 RMK A01 T10061031  RH  083%=      5-min Rain = 0
KPD3 130408Z 30005KT M01/M03 A3017 RMK A01 T10051031  RH  082%=      5-min Rain = 0
KPD3 130409Z 30005KT M00/M03 A3017 RMK A01 T10041032  RH  082%=      5-min Rain = 0
KPD3 130410Z 29005KT M00/M03 A3017 RMK A01 T10031031  RH  082%=      5-min Rain = 0
KPD3 130411Z 29005KT M00/M03 A3017 RMK A01 T10021031  RH  081%=      5-min Rain = 0
KPD3 130412Z 29006KT M00/M03 A3017 RMK A01 T10021033  RH  080%=      5-min Rain = 0
KPD3 130413Z 28006KT M00/M03 A3017 RMK A01 T10011031  RH  081%=      5-min Rain = 0
KPD3 130414Z 29007KT 00/03 A3017 RMK A01 T00000-29  RH  081%=      5-min Rain = 0
KPD3 130415Z 28007KT 00/M03 A3017 RMK A01 T00021028  RH  080%=      5-min Rain = 0
KPD3 130416Z 28006KT 00/M03 A3017 RMK A01 T00041027  RH  080%=      5-min Rain = 0
KPD3 130417Z 28006KT 01/M03 A3017 RMK A01 T00051027  RH  079%=      5-min Rain = 0
KPD3 130418Z 28005KT 01/M03 A3017 RMK A01 T00051028  RH  079%=      5-min Rain = 0
KPD3 130419Z 27005KT 01/M03 A3017 RMK A01 T00051028  RH  078%=      5-min Rain = 0
KPD3 130420Z 26007KT 01/M03 A3017 RMK A01 T00051029  RH  078%=      5-min Rain = 0
KPD3 130421Z 26008KT 00/M03 A3017 RMK A01 T00041029  RH  078%=      5-min Rain = 0
KPD3 130422Z 26008KT 00/M03 A3017 RMK A01 T00031029  RH  079%=      5-min Rain = 0
KPD3 130423Z 26009KT 00/M03 A3017 RMK A01 T00021029  RH  080%=      5-min Rain = 0
KPD3 130424Z 26009KT 00/M03 A3017 RMK A01 T00021026  RH  081%=      5-min Rain = 0
KPD3 130425Z 26008KT 01/M02 A3017 RMK A01 T00051023  RH  082%=      5-min Rain = 0
KPD3 130426Z 26008KT 01/M02 A3017 RMK A01 T00081021  RH  081%=      5-min Rain = 0
KPD3 130427Z 25008KT 01/M02 A3016 RMK A01 T00091021  RH  080%=      5-min Rain = 0
KPD3 130428Z 25008KT 01/M02 A3016 RMK A01 T00101022  RH  079%=      5-min Rain = 0
KPD3 130429Z 25008KT 01/M02 A3016 RMK A01 T00101023  RH  079%=      5-min Rain = 0
KPD3 130430Z 25009KT 01/M03 A3017 RMK A01 T00081025  RH  078%=      5-min Rain = 0
KPD3 130431Z 25008KT 01/M03 A3017 RMK A01 T00061027  RH  078%=      5-min Rain = 0
KPD3 130432Z 25008KT 01/M03 A3017 RMK A01 T00051028  RH  079%=      5-min Rain = 0
KPD3 130433Z 25007KT 00/M03 A3017 RMK A01 T00031029  RH  079%=      5-min Rain = 0
KPD3 130434Z 25007KT 00/M03 A3017 RMK A01 T00011030  RH  079%=      5-min Rain = 0
KPD3 130435Z 25006KT 00/03 A3017 RMK A01 T00-00-31  RH  080%=      5-min Rain = 0
KPD3 130436Z 25005KT M00/M03 A3017 RMK A01 T10021032  RH  080%=      5-min Rain = 0
KPD3 130437Z 27004KT M00/M03 A3017 RMK A01 T10031032  RH  081%=      5-min Rain = 0
KPD3 130438Z 28003KT M00/M03 A3017 RMK A01 T10031030  RH  082%=      5-min Rain = 0
KPD3 130439Z 28002KT M00/M03 A3017 RMK A01 T10011028  RH  082%=      5-min Rain = 0
KPD3 130440Z 30002KT 00/M03 A3017 RMK A01 T00021026  RH  081%=      5-min Rain = 0
KPD3 130441Z 32001KT 00/M03 A3017 RMK A01 T00041026  RH  081%=      5-min Rain = 0
KPD3 130442Z 34000KT 01/M03 A3017 RMK A01 T00061025  RH  079%=      5-min Rain = 0
KPD3 130443Z 03000KT 01/M03 A3017 RMK A01 T00081026  RH  078%=      5-min Rain = 0
KPD3 130444Z 03001KT 01/M03 A3016 RMK A01 T00081029  RH  076%=      5-min Rain = 0
KPD3 130445Z 03001KT 01/M03 A3016 RMK A01 T00051034  RH  075%=      5-min Rain = 0
KPD3 130446Z 04001KT 00/04 A3016 RMK A01 T00000-38  RH  075%=      5-min Rain = 0
KPD3 130447Z 07000KT M01/M04 A3016 RMK A01 T10061044  RH  076%=      5-min Rain = 0
KPD3 130448Z 14001KT M01/M04 A3016 RMK A01 T10081040  RH  079%=      5-min Rain = 0
KPD3 130449Z 11002KT M01/M04 A3016 RMK A01 T10081038  RH  081%=      5-min Rain = 0
KPD3 130450Z 12002KT M01/M04 A3016 RMK A01 T10091038  RH  080%=      5-min Rain = 0
KPD3 130451Z 14001KT M01/M04 A3016 RMK A01 T10091037  RH  081%=      5-min Rain = 0
KPD3 130452Z 15001KT M01/M04 A3016 RMK A01 T10081036  RH  082%=      5-min Rain = 0
KPD3 130453Z 16001KT M01/M04 A3016 RMK A01 T10081037  RH  081%=      5-min Rain = 0
KPD3 130454Z 17001KT M01/M03 A3016 RMK A01 T10061033  RH  082%=      5-min Rain = 0
KPD3 130455Z 17002KT 00/03 A3016 RMK A01 T00000-26  RH  083%=      5-min Rain = 0
KPD3 130456Z 18001KT 00/M03 A3016 RMK A01 T00041026  RH  080%=      5-min Rain = 0
KPD3 130457Z 19000KT 01/M03 A3016 RMK A01 T00071029  RH  077%=      5-min Rain = 0
KPD3 130458Z 24002KT 01/M03 A3016 RMK A01 T00061031  RH  076%=      5-min Rain = 0
KPD3 130459Z 24002KT 01/M03 A3016 RMK A01 T00061030  RH  077%=      5-min Rain = 0
KPD3 130500Z 26002KT 01/M03 A3016 RMK A01 T00081027  RH  078%=      5-min Rain = 0
KPD3 130501Z 26001KT 01/M02 A3016 RMK A01 T00111024  RH  078%=      5-min Rain = 0
KPD3 130502Z 26002KT 01/M02 A3015 RMK A01 T00131023  RH  077%=      5-min Rain = 0
KPD3 130503Z 25002KT 02/M02 A3015 RMK A01 T00151023  RH  076%=      5-min Rain = 0
KPD3 130504Z 25002KT 02/M02 A3015 RMK A01 T00161023  RH  075%=      5-min Rain = 0
KPD3 130505Z 26001KT 02/M02 A3015 RMK A01 T00171023  RH  075%=      5-min Rain = 0
KPD3 130506Z 30001KT 02/M02 A3015 RMK A01 T00171024  RH  074%=      5-min Rain = 0
KPD3 130507Z 27000KT 02/M02 A3015 RMK A01 T00171024  RH  074%=      5-min Rain = 0
KPD3 130508Z 24001KT 02/M03 A3015 RMK A01 T00171025  RH  074%=      5-min Rain = 0
KPD3 130509Z 26000KT 02/M03 A3015 RMK A01 T00161026  RH  074%=      5-min Rain = 0
KPD3 130510Z 26002KT 02/M03 A3015 RMK A01 T00151027  RH  073%=      5-min Rain = 0
KPD3 130511Z 25002KT 01/M03 A3015 RMK A01 T00141028  RH  074%=      5-min Rain = 0
KPD3 130512Z 26005KT 01/M03 A3015 RMK A01 T00131027  RH  075%=      5-min Rain = 0
KPD3 130513Z 25007KT 01/M03 A3015 RMK A01 T00121027  RH  075%=      5-min Rain = 0
KPD3 130514Z 25009KT 01/M02 A3015 RMK A01 T00131022  RH  078%=      5-min Rain = 0
KPD3 130515Z 26009KT 02/M02 A3015 RMK A01 T00161016  RH  079%=      5-min Rain = 0
KPD3 130516Z 26009KT 02/M02 A3015 RMK A01 T00191015  RH  078%=      5-min Rain = 0
KPD3 130517Z 26009KT 02/M02 A3015 RMK A01 T00211015  RH  077%=      5-min Rain = 0
KPD3 130518Z 26009KT 02/M02 A3014 RMK A01 T00231015  RH  076%=      5-min Rain = 0
KPD3 130519Z 26009KT 02/M02 A3014 RMK A01 T00231015  RH  076%=      5-min Rain = 0
KPD3 130520Z 26010KT 02/M02 A3014 RMK A01 T00231016  RH  075%=      5-min Rain = 0
KPD3 130521Z 26010KT 02/M02 A3014 RMK A01 T00231016  RH  075%=      5-min Rain = 0
KPD3 130522Z 26011KT 02/M02 A3014 RMK A01 T00231016  RH  076%=      5-min Rain = 0
KPD3 130523Z 26010KT 02/M02 A3014 RMK A01 T00231016  RH  075%=      5-min Rain = 0
KPD3 130524Z 26010KT 02/M02 A3014 RMK A01 T00231016  RH  075%=      5-min Rain = 0
KPD3 130525Z 25011KT 02/M02 A3014 RMK A01 T00231017  RH  075%=      5-min Rain = 0
KPD3 130526Z 25010KT 02/M02 A3014 RMK A01 T00221018  RH  075%=      5-min Rain = 0
KPD3 130527Z 26010KT 02/M02 A3014 RMK A01 T00211018  RH  075%=      5-min Rain = 0
KPD3 130528Z 26010KT 02/M02 A3014 RMK A01 T00211018  RH  075%=      5-min Rain = 0
KPD3 130529Z 26010KT 02/M02 A3014 RMK A01 T00211017  RH  076%=      5-min Rain = 0
KPD3 130530Z 26010KT 02/M02 A3014 RMK A01 T00211017  RH  076%=      5-min Rain = 0
KPD3 130531Z 26010KT 02/M02 A3014 RMK A01 T00211017  RH  076%=      5-min Rain = 0
KPD3 130532Z 26010KT 02/M02 A3014 RMK A01 T00211017  RH  076%=      5-min Rain = 0
KPD3 130533Z 26010KT 02/M02 A3014 RMK A01 T00211017  RH  076%=      5-min Rain = 0
KPD3 130534Z 26009KT 02/M02 A3014 RMK A01 T00221017  RH  076%=      5-min Rain = 0
KPD3 130535Z 26010KT 02/M02 A3014 RMK A01 T00221017  RH  075%=      5-min Rain = 0
KPD3 130536Z 26010KT 02/M02 A3014 RMK A01 T00231017  RH  075%=      5-min Rain = 0
KPD3 130537Z 26010KT 02/M02 A3014 RMK A01 T00231016  RH  075%=      5-min Rain = 0
KPD3 130538Z 26009KT 02/M02 A3014 RMK A01 T00241016  RH  075%=      5-min Rain = 0
KPD3 130539Z 26009KT 02/M02 A3014 RMK A01 T00231017  RH  075%=      5-min Rain = 0
KPD3 130540Z 26009KT 02/M02 A3014 RMK A01 T00241017  RH  075%=      5-min Rain = 0
KPD3 130541Z 26009KT 02/M02 A3014 RMK A01 T00241017  RH  075%=      5-min Rain = 0
KPD3 130542Z 26009KT 02/M02 A3014 RMK A01 T00231017  RH  075%=      5-min Rain = 0
KPD3 130543Z 26010KT 02/M02 A3014 RMK A01 T00231017  RH  075%=      5-min Rain = 0
KPD3 130544Z 26009KT 02/M02 A3014 RMK A01 T00231017  RH  075%=      5-min Rain = 0
KPD3 130545Z 26010KT 02/M02 A3014 RMK A01 T00231017  RH  075%=      5-min Rain = 0
KPD3 130546Z 25009KT 02/M02 A3014 RMK A01 T00241017  RH  074%=      5-min Rain = 0
KPD3 130547Z 25008KT 03/M02 A3014 RMK A01 T00251016  RH  074%=      5-min Rain = 0
KPD3 130548Z 25009KT 03/M02 A3014 RMK A01 T00251017  RH  074%=      5-min Rain = 0
KPD3 130549Z 25009KT 02/M02 A3014 RMK A01 T00241017  RH  074%=      5-min Rain = 0
KPD3 130550Z 26009KT 02/M02 A3014 RMK A01 T00241017  RH  074%=      5-min Rain = 0
KPD3 130551Z 26010KT 02/M02 A3014 RMK A01 T00231017  RH  074%=      5-min Rain = 0
KPD3 130552Z 26010KT 02/M02 A3014 RMK A01 T00231017  RH  075%=      5-min Rain = 0
KPD3 130553Z 26012KT 02/M02 A3014 RMK A01 T00241017  RH  075%=      5-min Rain = 0
KPD3 130554Z 26013KT 03/M02 A3014 RMK A01 T00251016  RH  074%=      5-min Rain = 0
KPD3 130555Z 26013KT 03/M02 A3014 RMK A01 T00271015  RH  074%=      5-min Rain = 0
KPD3 130556Z 25014KT 03/M02 A3014 RMK A01 T00291015  RH  073%=      5-min Rain = 0
KPD3 130557Z 26015KT 03/M02 A3014 RMK A01 T00301015  RH  073%=      5-min Rain = 0
KPD3 130558Z 26014KT 03/M02 A3014 RMK A01 T00301015  RH  072%=      5-min Rain = 0
KPD3 130559Z 25014KT 03/M02 A3014 RMK A01 T00311015  RH  072%=      5-min Rain = 0

Page generated in 0.1218 seconds.